Time,TemperatureF,DewpointF,PressureIn,WindDirection,WindDirectionDegrees,WindSpeedMPH,WindSpeedGustMPH,Humidity,HourlyPrecipIn,Conditions,Clouds,dailyrainin,SoftwareType,DateUTC
2013-01-18 00:01:00,26.1,19.3,30.47,NW,315,0.0,0.0,75,0.00,,,0.00,Wunderground v.1.15,2013-01-18 05:01:00,
2013-01-18 00:02:00,26.1,19.3,30.47,NW,315,0.0,0.0,75,0.00,,,0.00,Wunderground v.1.15,2013-01-18 05:02:00,
2013-01-18 00:04:00,25.9,19.4,30.47,NW,315,0.0,0.0,76,0.00,,,0.00,Wunderground v.1.15,2013-01-18 05:04:00,
2013-01-18 00:06:00,25.9,19.4,30.47,NW,315,0.0,0.0,76,0.00,,,0.00,Wunderground v.1.15,2013-01-18 05:06:00,
2013-01-18 00:07:00,25.9,19.7,30.47,NW,315,0.0,0.0,77,0.00,,,0.00,Wunderground v.1.15,2013-01-18 05:07:00,
2013-01-18 00:10:00,26.1,19.9,30.47,NW,315,0.0,0.0,77,0.00,,,0.00,Wunderground v.1.15,2013-01-18 05:10:00,
2013-01-18 00:13:00,26.1,19.9,30.47,NW,315,0.0,0.0,77,0.00,,,0.00,Wunderground v.1.15,2013-01-18 05:13:00,
2013-01-18 00:14:00,26.1,19.9,30.47,NW,315,0.0,0.0,77,0.00,,,0.00,Wunderground v.1.15,2013-01-18 05:14:00,
2013-01-18 00:15:00,26.1,19.9,30.48,NW,315,0.0,0.0,77,0.00,,,0.00,Wunderground v.1.15,2013-01-18 05:15:00,
2013-01-18 00:19:00,25.9,19.4,30.48,NW,315,0.0,0.0,76,0.00,,,0.00,Wunderground v.1.15,2013-01-18 05:19:00,
2013-01-18 00:20:00,25.9,19.4,30.48,NW,315,0.0,0.0,76,0.00,,,0.00,Wunderground v.1.15,2013-01-18 05:20:00,
2013-01-18 00:21:00,25.9,19.4,30.48,NW,315,0.0,0.0,76,0.00,,,0.00,Wunderground v.1.15,2013-01-18 05:21:00,
2013-01-18 00:24:00,25.9,19.4,30.48,NW,315,0.0,0.0,76,0.00,,,0.00,Wunderground v.1.15,2013-01-18 05:24:00,
2013-01-18 00:25:00,25.9,19.4,30.48,NW,315,0.0,0.0,76,0.00,,,0.00,Wunderground v.1.15,2013-01-18 05:25:00,
2013-01-18 00:28:00,25.8,19.3,30.48,NW,315,0.0,0.0,76,0.00,,,0.00,Wunderground v.1.15,2013-01-18 05:28:00,
2013-01-18 00:30:00,25.8,19.3,30.48,NW,315,0.0,0.0,76,0.00,,,0.00,Wunderground v.1.15,2013-01-18 05:30:00,
2013-01-18 00:31:00,25.6,19.1,30.48,NW,315,0.0,0.0,76,0.00,,,0.00,Wunderground v.1.15,2013-01-18 05:31:00,
2013-01-18 00:32:00,25.6,19.1,30.48,NW,315,0.0,0.0,76,0.00,,,0.00,Wunderground v.1.15,2013-01-18 05:32:00,
2013-01-18 00:35:00,25.5,19.3,30.48,NW,315,0.0,0.0,77,0.00,,,0.00,Wunderground v.1.15,2013-01-18 05:35:00,
2013-01-18 00:36:00,25.3,19.1,30.48,NW,315,0.0,0.0,77,0.00,,,0.00,Wunderground v.1.15,2013-01-18 05:36:00,
2013-01-18 00:38:00,25.2,19.0,30.48,NW,315,0.0,0.0,77,0.00,,,0.00,Wunderground v.1.15,2013-01-18 05:38:00,
2013-01-18 00:41:00,25.2,19.0,30.48,NW,315,0.0,0.0,77,0.00,,,0.00,Wunderground v.1.15,2013-01-18 05:41:00,
2013-01-18 00:44:00,25.0,19.1,30.48,NW,315,0.0,0.0,78,0.00,,,0.00,Wunderground v.1.15,2013-01-18 05:44:00,
2013-01-18 00:46:00,25.0,19.1,30.48,NW,315,0.0,0.0,78,0.00,,,0.00,Wunderground v.1.15,2013-01-18 05:46:00,
2013-01-18 00:48:00,25.0,19.1,30.48,NW,315,0.0,0.0,78,0.00,,,0.00,Wunderground v.1.15,2013-01-18 05:48:00,
2013-01-18 00:50:00,24.9,19.0,30.48,NW,315,0.0,0.0,78,0.00,,,0.00,Wunderground v.1.15,2013-01-18 05:50:00,
2013-01-18 00:52:00,24.9,19.0,30.48,NW,315,0.0,0.0,78,0.00,,,0.00,Wunderground v.1.15,2013-01-18 05:52:00,
2013-01-18 00:53:00,24.9,19.0,30.48,NW,315,0.0,0.0,78,0.00,,,0.00,Wunderground v.1.15,2013-01-18 05:53:00,
2013-01-18 00:55:00,24.9,19.0,30.48,NW,315,0.0,0.0,78,0.00,,,0.00,Wunderground v.1.15,2013-01-18 05:55:00,
2013-01-18 00:58:00,24.7,19.1,30.48,NW,315,0.0,0.0,79,0.00,,,0.00,Wunderground v.1.15,2013-01-18 05:58:00,
2013-01-18 01:00:00,24.6,19.0,30.49,NW,315,0.0,0.0,79,0.00,,,0.00,Wunderground v.1.15,2013-01-18 06:00:00,
2013-01-18 01:01:00,24.6,19.0,30.49,NW,315,0.0,0.0,79,0.00,,,0.00,Wunderground v.1.15,2013-01-18 06:01:00,
2013-01-18 01:02:00,24.6,19.3,30.49,NW,315,0.0,0.0,80,0.00,,,0.00,Wunderground v.1.15,2013-01-18 06:02:00,
2013-01-18 01:06:00,24.6,19.6,30.49,NW,315,0.0,0.0,81,0.00,,,0.00,Wunderground v.1.15,2013-01-18 06:06:00,
2013-01-18 01:07:00,24.6,19.6,30.49,NW,315,0.0,0.0,81,0.00,,,0.00,Wunderground v.1.15,2013-01-18 06:07:00,
2013-01-18 01:08:00,24.6,19.6,30.49,NW,315,0.0,0.0,81,0.00,,,0.00,Wunderground v.1.15,2013-01-18 06:08:00,
2013-01-18 01:10:00,24.4,19.4,30.49,NW,315,0.0,0.0,81,0.00,,,0.00,Wunderground v.1.15,2013-01-18 06:10:00,
2013-01-18 01:11:00,24.4,19.4,30.49,NW,315,0.0,0.0,81,0.00,,,0.00,Wunderground v.1.15,2013-01-18 06:11:00,
2013-01-18 01:14:00,24.3,19.0,30.49,NW,315,0.0,0.0,80,0.00,,,0.00,Wunderground v.1.15,2013-01-18 06:14:00,
2013-01-18 01:16:00,24.1,18.8,30.49,NW,315,0.0,0.0,80,0.00,,,0.00,Wunderground v.1.15,2013-01-18 06:16:00,
2013-01-18 01:17:00,24.1,18.8,30.49,NW,315,0.0,0.0,80,0.00,,,0.00,Wunderground v.1.15,2013-01-18 06:17:00,
2013-01-18 01:19:00,24.0,18.7,30.49,NW,315,0.0,0.0,80,0.00,,,0.00,Wunderground v.1.15,2013-01-18 06:19:00,
2013-01-18 01:23:00,23.7,18.7,30.49,NW,315,0.0,0.0,81,0.00,,,0.00,Wunderground v.1.15,2013-01-18 06:23:00,
2013-01-18 01:24:00,23.7,18.7,30.49,NW,315,0.0,0.0,81,0.00,,,0.00,Wunderground v.1.15,2013-01-18 06:24:00,
2013-01-18 01:26:00,23.5,18.5,30.49,NW,315,0.0,0.0,81,0.00,,,0.00,Wunderground v.1.15,2013-01-18 06:26:00,
2013-01-18 01:31:00,23.2,18.2,30.50,NW,315,0.0,0.0,81,0.00,,,0.00,Wunderground v.1.15,2013-01-18 06:31:00,
2013-01-18 01:32:00,23.2,18.2,30.50,NW,315,0.0,0.0,81,0.00,,,0.00,Wunderground v.1.15,2013-01-18 06:32:00,
2013-01-18 01:34:00,23.0,18.0,30.50,NW,315,0.0,0.0,81,0.00,,,0.00,Wunderground v.1.15,2013-01-18 06:34:00,
2013-01-18 01:35:00,23.0,18.0,30.50,NW,315,0.0,0.0,81,0.00,,,0.00,Wunderground v.1.15,2013-01-18 06:35:00,
2013-01-18 01:36:00,23.0,18.0,30.50,NW,315,0.0,0.0,81,0.00,,,0.00,Wunderground v.1.15,2013-01-18 06:36:00,
2013-01-18 01:37:00,22.9,17.9,30.50,NW,315,0.0,0.0,81,0.00,,,0.00,Wunderground v.1.15,2013-01-18 06:37:00,
2013-01-18 01:39:00,22.9,17.9,30.50,NW,315,0.0,0.0,81,0.00,,,0.00,Wunderground v.1.15,2013-01-18 06:39:00,
2013-01-18 01:42:00,22.9,18.2,30.50,NW,315,0.0,0.0,82,0.00,,,0.00,Wunderground v.1.15,2013-01-18 06:42:00,
2013-01-18 01:43:00,22.9,18.2,30.50,NW,315,0.0,0.0,82,0.00,,,0.00,Wunderground v.1.15,2013-01-18 06:43:00,
2013-01-18 01:45:00,22.9,18.2,30.50,NW,315,0.0,0.0,82,0.00,,,0.00,Wunderground v.1.15,2013-01-18 06:45:00,
2013-01-18 01:47:00,22.9,18.2,30.50,NW,315,0.0,0.0,82,0.00,,,0.00,Wunderground v.1.15,2013-01-18 06:47:00,
2013-01-18 01:48:00,22.7,18.0,30.50,NW,315,0.0,0.0,82,0.00,,,0.00,Wunderground v.1.15,2013-01-18 06:48:00,
2013-01-18 01:49:00,22.7,18.0,30.50,NW,315,0.0,0.0,82,0.00,,,0.00,Wunderground v.1.15,2013-01-18 06:49:00,
2013-01-18 01:52:00,22.6,17.9,30.50,NW,315,0.0,0.0,82,0.00,,,0.00,Wunderground v.1.15,2013-01-18 06:52:00,
2013-01-18 01:54:00,22.6,17.9,30.50,NW,315,0.0,0.0,82,0.00,,,0.00,Wunderground v.1.15,2013-01-18 06:54:00,
2013-01-18 01:56:00,22.6,17.9,30.50,NW,315,0.0,0.0,82,0.00,,,0.00,Wunderground v.1.15,2013-01-18 06:56:00,
2013-01-18 01:58:00,22.6,18.2,30.50,NW,315,0.0,0.0,83,0.00,,,0.00,Wunderground v.1.15,2013-01-18 06:58:00,
2013-01-18 02:02:00,22.4,18.0,30.51,NW,315,0.0,0.0,83,0.00,,,0.00,Wunderground v.1.15,2013-01-18 07:02:00,
2013-01-18 02:03:00,22.4,18.0,30.51,NW,315,0.0,0.0,83,0.00,,,0.00,Wunderground v.1.15,2013-01-18 07:03:00,
2013-01-18 02:05:00,22.4,18.0,30.51,NW,315,0.0,0.0,83,0.00,,,0.00,Wunderground v.1.15,2013-01-18 07:05:00,
2013-01-18 02:08:00,22.3,17.9,30.51,NW,315,0.0,0.0,83,0.00,,,0.00,Wunderground v.1.15,2013-01-18 07:08:00,
2013-01-18 02:10:00,22.3,17.9,30.51,NW,315,0.0,0.0,83,0.00,,,0.00,Wunderground v.1.15,2013-01-18 07:10:00,
2013-01-18 02:11:00,22.3,17.9,30.51,NW,315,0.0,0.0,83,0.00,,,0.00,Wunderground v.1.15,2013-01-18 07:11:00,
2013-01-18 02:13:00,22.3,17.9,30.51,NW,315,0.0,0.0,83,0.00,,,0.00,Wunderground v.1.15,2013-01-18 07:13:00,
2013-01-18 02:15:00,22.3,17.9,30.51,NW,315,0.0,0.0,83,0.00,,,0.00,Wunderground v.1.15,2013-01-18 07:15:00,
2013-01-18 02:18:00,22.3,17.9,30.51,NW,315,0.0,0.0,83,0.00,,,0.00,Wunderground v.1.15,2013-01-18 07:18:00,
2013-01-18 02:21:00,22.3,18.2,30.51,NW,315,0.0,0.0,84,0.00,,,0.00,Wunderground v.1.15,2013-01-18 07:21:00,
2013-01-18 02:22:00,22.3,18.2,30.51,NW,315,0.0,0.0,84,0.00,,,0.00,Wunderground v.1.15,2013-01-18 07:22:00,
2013-01-18 02:25:00,22.3,17.9,30.51,NW,315,0.0,0.0,83,0.00,,,0.00,Wunderground v.1.15,2013-01-18 07:25:00,
2013-01-18 02:26:00,22.3,17.9,30.51,NW,315,0.0,0.0,83,0.00,,,0.00,Wunderground v.1.15,2013-01-18 07:26:00,
2013-01-18 02:31:00,22.1,17.7,30.52,NW,315,0.0,0.0,83,0.00,,,0.00,Wunderground v.1.15,2013-01-18 07:31:00,
2013-01-18 02:33:00,21.9,17.5,30.52,NW,315,0.0,0.0,83,0.00,,,0.00,Wunderground v.1.15,2013-01-18 07:33:00,
2013-01-18 02:36:00,21.9,17.8,30.52,NW,315,0.0,0.0,84,0.00,,,0.00,Wunderground v.1.15,2013-01-18 07:36:00,
2013-01-18 02:37:00,21.9,17.8,30.52,NW,315,0.0,0.0,84,0.00,,,0.00,Wunderground v.1.15,2013-01-18 07:37:00,
2013-01-18 02:38:00,21.9,17.8,30.52,NW,315,0.0,0.0,84,0.00,,,0.00,Wunderground v.1.15,2013-01-18 07:38:00,
2013-01-18 02:40:00,21.9,17.8,30.52,NW,315,0.0,0.0,84,0.00,,,0.00,Wunderground v.1.15,2013-01-18 07:40:00,
2013-01-18 02:42:00,21.9,17.8,30.52,NW,315,0.0,0.0,84,0.00,,,0.00,Wunderground v.1.15,2013-01-18 07:42:00,
2013-01-18 02:44:00,21.9,17.8,30.52,NW,315,0.0,0.0,84,0.00,,,0.00,Wunderground v.1.15,2013-01-18 07:44:00,
2013-01-18 02:46:00,21.9,17.8,30.52,NW,315,0.0,0.0,84,0.00,,,0.00,Wunderground v.1.15,2013-01-18 07:46:00,
2013-01-18 02:49:00,21.8,17.7,30.52,NW,315,0.0,0.0,84,0.00,,,0.00,Wunderground v.1.15,2013-01-18 07:49:00,
2013-01-18 02:50:00,21.8,17.7,30.52,NW,315,0.0,0.0,84,0.00,,,0.00,Wunderground v.1.15,2013-01-18 07:50:00,
2013-01-18 02:51:00,21.8,17.7,30.52,NW,315,0.0,0.0,84,0.00,,,0.00,Wunderground v.1.15,2013-01-18 07:51:00,
2013-01-18 02:53:00,21.8,17.7,30.52,NW,315,0.0,0.0,84,0.00,,,0.00,Wunderground v.1.15,2013-01-18 07:53:00,
2013-01-18 02:55:00,21.6,17.5,30.52,NW,315,0.0,0.0,84,0.00,,,0.00,Wunderground v.1.15,2013-01-18 07:55:00,
2013-01-18 02:57:00,21.6,17.5,30.52,NW,315,0.0,0.0,84,0.00,,,0.00,Wunderground v.1.15,2013-01-18 07:57:00,
2013-01-18 03:00:00,21.5,17.4,30.52,NW,315,0.0,0.0,84,0.00,,,0.00,Wunderground v.1.15,2013-01-18 08:00:00,
2013-01-18 03:02:00,21.3,17.2,30.52,NW,315,0.0,0.0,84,0.00,,,0.00,Wunderground v.1.15,2013-01-18 08:02:00,
2013-01-18 03:06:00,21.3,17.2,30.52,NW,315,0.0,0.0,84,0.00,,,0.00,Wunderground v.1.15,2013-01-18 08:06:00,
2013-01-18 03:08:00,21.1,17.0,30.52,NW,315,0.0,0.0,84,0.00,,,0.00,Wunderground v.1.15,2013-01-18 08:08:00,
2013-01-18 03:09:00,21.1,17.0,30.52,NW,315,0.0,0.0,84,0.00,,,0.00,Wunderground v.1.15,2013-01-18 08:09:00,
2013-01-18 03:13:00,21.0,16.9,30.52,NW,315,0.0,0.0,84,0.00,,,0.00,Wunderground v.1.15,2013-01-18 08:13:00,
2013-01-18 03:14:00,21.0,17.2,30.52,NW,315,0.0,0.0,85,0.00,,,0.00,Wunderground v.1.15,2013-01-18 08:14:00,
2013-01-18 03:16:00,21.0,17.2,30.54,NW,315,0.0,0.0,85,0.00,,,0.00,Wunderground v.1.15,2013-01-18 08:16:00,
2013-01-18 03:18:00,21.0,17.2,30.54,NW,315,0.0,0.0,85,0.00,,,0.00,Wunderground v.1.15,2013-01-18 08:18:00,
2013-01-18 03:19:00,21.0,17.2,30.54,NW,315,0.0,0.0,85,0.00,,,0.00,Wunderground v.1.15,2013-01-18 08:19:00,
2013-01-18 03:21:00,21.0,17.2,30.54,NW,315,0.0,0.0,85,0.00,,,0.00,Wunderground v.1.15,2013-01-18 08:21:00,
2013-01-18 03:23:00,21.0,17.2,30.54,NW,315,0.0,0.0,85,0.00,,,0.00,Wunderground v.1.15,2013-01-18 08:23:00,
2013-01-18 03:24:00,21.0,17.2,30.54,NW,315,0.0,0.0,85,0.00,,,0.00,Wunderground v.1.15,2013-01-18 08:24:00,
2013-01-18 03:27:00,21.0,17.2,30.54,NW,315,0.0,0.0,85,0.00,,,0.00,Wunderground v.1.15,2013-01-18 08:27:00,
2013-01-18 03:30:00,20.8,17.0,30.54,NW,315,0.0,0.0,85,0.00,,,0.00,Wunderground v.1.15,2013-01-18 08:30:00,
2013-01-18 03:31:00,20.8,17.0,30.54,NW,315,0.0,0.0,85,0.00,,,0.00,Wunderground v.1.15,2013-01-18 08:31:00,
2013-01-18 03:32:00,20.8,17.0,30.54,NW,315,0.0,0.0,85,0.00,,,0.00,Wunderground v.1.15,2013-01-18 08:32:00,
2013-01-18 03:33:00,20.8,17.0,30.54,NW,315,0.0,0.0,85,0.00,,,0.00,Wunderground v.1.15,2013-01-18 08:33:00,
2013-01-18 03:36:00,21.0,17.2,30.54,NW,315,0.0,0.0,85,0.00,,,0.00,Wunderground v.1.15,2013-01-18 08:36:00,
2013-01-18 03:37:00,21.0,17.2,30.54,NW,315,0.0,0.0,85,0.00,,,0.00,Wunderground v.1.15,2013-01-18 08:37:00,
2013-01-18 03:39:00,21.0,17.2,30.54,NW,315,0.0,0.0,85,0.00,,,0.00,Wunderground v.1.15,2013-01-18 08:39:00,
2013-01-18 03:41:00,21.0,17.2,30.54,NW,315,0.0,0.0,85,0.00,,,0.00,Wunderground v.1.15,2013-01-18 08:41:00,
2013-01-18 03:43:00,21.0,17.2,30.54,NW,315,0.0,0.0,85,0.00,,,0.00,Wunderground v.1.15,2013-01-18 08:43:00,
2013-01-18 03:44:00,21.0,17.2,30.54,NW,315,0.0,0.0,85,0.00,,,0.00,Wunderground v.1.15,2013-01-18 08:44:00,
2013-01-18 03:45:00,21.0,17.2,30.54,NW,315,0.0,0.0,85,0.00,,,0.00,Wunderground v.1.15,2013-01-18 08:45:00,
2013-01-18 03:50:00,20.8,17.0,30.54,NW,315,0.0,0.0,85,0.00,,,0.00,Wunderground v.1.15,2013-01-18 08:50:00,
2013-01-18 03:51:00,20.7,16.9,30.54,NW,315,0.0,0.0,85,0.00,,,0.00,Wunderground v.1.15,2013-01-18 08:51:00,
2013-01-18 03:56:00,20.5,16.7,30.54,NW,315,0.0,0.0,85,0.00,,,0.00,Wunderground v.1.15,2013-01-18 08:56:00,
2013-01-18 03:58:00,20.5,16.7,30.54,NW,315,0.0,0.0,85,0.00,,,0.00,Wunderground v.1.15,2013-01-18 08:58:00,
2013-01-18 03:59:00,20.5,16.7,30.54,NW,315,0.0,0.0,85,0.00,,,0.00,Wunderground v.1.15,2013-01-18 08:59:00,
2013-01-18 04:00:00,20.4,16.6,30.54,NW,315,0.0,0.0,85,0.00,,,0.00,Wunderground v.1.15,2013-01-18 09:00:00,
2013-01-18 04:04:00,20.4,16.6,30.54,NW,315,0.0,0.0,85,0.00,,,0.00,Wunderground v.1.15,2013-01-18 09:04:00,
2013-01-18 04:05:00,20.2,16.4,30.54,NW,315,0.0,0.0,85,0.00,,,0.00,Wunderground v.1.15,2013-01-18 09:05:00,
2013-01-18 04:06:00,20.2,16.4,30.54,NW,315,0.0,0.0,85,0.00,,,0.00,Wunderground v.1.15,2013-01-18 09:06:00,
2013-01-18 04:11:00,20.2,16.4,30.54,NW,315,0.0,0.0,85,0.00,,,0.00,Wunderground v.1.15,2013-01-18 09:11:00,
2013-01-18 04:12:00,20.0,16.2,30.54,NW,315,0.0,0.0,85,0.00,,,0.00,Wunderground v.1.15,2013-01-18 09:12:00,
2013-01-18 04:16:00,20.0,16.2,30.54,NW,315,0.0,0.0,85,0.00,,,0.00,Wunderground v.1.15,2013-01-18 09:16:00,
2013-01-18 04:17:00,19.9,16.1,30.54,NW,315,0.0,0.0,85,0.00,,,0.00,Wunderground v.1.15,2013-01-18 09:17:00,
2013-01-18 04:18:00,19.9,16.1,30.54,NW,315,0.0,0.0,85,0.00,,,0.00,Wunderground v.1.15,2013-01-18 09:18:00,
2013-01-18 04:21:00,19.9,16.1,30.54,NW,315,0.0,0.0,85,0.00,,,0.00,Wunderground v.1.15,2013-01-18 09:21:00,
2013-01-18 04:25:00,19.9,16.4,30.54,NW,315,0.0,0.0,86,0.00,,,0.00,Wunderground v.1.15,2013-01-18 09:25:00,
2013-01-18 04:26:00,19.9,16.4,30.54,NW,315,0.0,0.0,86,0.00,,,0.00,Wunderground v.1.15,2013-01-18 09:26:00,
2013-01-18 04:28:00,19.9,16.4,30.54,NW,315,0.0,0.0,86,0.00,,,0.00,Wunderground v.1.15,2013-01-18 09:28:00,
2013-01-18 04:31:00,19.9,16.4,30.54,NW,315,0.0,0.0,86,0.00,,,0.00,Wunderground v.1.15,2013-01-18 09:31:00,
2013-01-18 04:32:00,19.9,16.4,30.54,NW,315,0.0,0.0,86,0.00,,,0.00,Wunderground v.1.15,2013-01-18 09:32:00,
2013-01-18 04:33:00,19.7,16.2,30.54,NW,315,0.0,0.0,86,0.00,,,0.00,Wunderground v.1.15,2013-01-18 09:33:00,
2013-01-18 04:35:00,19.7,16.2,30.54,NW,315,0.0,0.0,86,0.00,,,0.00,Wunderground v.1.15,2013-01-18 09:35:00,
2013-01-18 04:38:00,19.7,16.2,30.54,NW,315,0.0,0.0,86,0.00,,,0.00,Wunderground v.1.15,2013-01-18 09:38:00,
2013-01-18 04:40:00,19.7,16.2,30.54,NW,315,0.0,0.0,86,0.00,,,0.00,Wunderground v.1.15,2013-01-18 09:40:00,
2013-01-18 04:41:00,19.7,16.2,30.54,NW,315,0.0,0.0,86,0.00,,,0.00,Wunderground v.1.15,2013-01-18 09:41:00,
2013-01-18 04:44:00,19.6,16.1,30.54,NW,315,0.0,0.0,86,0.00,,,0.00,Wunderground v.1.15,2013-01-18 09:44:00,
2013-01-18 04:45:00,19.6,16.1,30.54,NW,315,0.0,0.0,86,0.00,,,0.00,Wunderground v.1.15,2013-01-18 09:45:00,
2013-01-18 04:49:00,19.6,16.1,30.54,NW,315,0.0,0.0,86,0.00,,,0.00,Wunderground v.1.15,2013-01-18 09:49:00,
2013-01-18 04:50:00,19.6,16.1,30.54,NW,315,0.0,0.0,86,0.00,,,0.00,Wunderground v.1.15,2013-01-18 09:50:00,
2013-01-18 04:52:00,19.4,15.9,30.54,NW,315,0.0,0.0,86,0.00,,,0.00,Wunderground v.1.15,2013-01-18 09:52:00,
2013-01-18 04:53:00,19.4,15.9,30.54,NW,315,0.0,0.0,86,0.00,,,0.00,Wunderground v.1.15,2013-01-18 09:53:00,
2013-01-18 04:57:00,19.3,15.8,30.54,NW,315,0.0,0.0,86,0.00,,,0.00,Wunderground v.1.15,2013-01-18 09:57:00,
2013-01-18 04:58:00,19.3,15.8,30.54,NW,315,0.0,0.0,86,0.00,,,0.00,Wunderground v.1.15,2013-01-18 09:58:00,
2013-01-18 04:59:00,19.3,15.8,30.54,NW,315,0.0,0.0,86,0.00,,,0.00,Wunderground v.1.15,2013-01-18 09:59:00,
2013-01-18 05:01:00,19.3,15.8,30.53,NW,315,0.0,0.0,86,0.00,,,0.00,Wunderground v.1.15,2013-01-18 10:01:00,
2013-01-18 05:02:00,19.1,15.6,30.53,NW,315,0.0,0.0,86,0.00,,,0.00,Wunderground v.1.15,2013-01-18 10:02:00,
2013-01-18 05:06:00,19.1,15.9,30.53,NW,315,0.0,0.0,87,0.00,,,0.00,Wunderground v.1.15,2013-01-18 10:06:00,
2013-01-18 05:08:00,19.1,15.9,30.53,NW,315,0.0,0.0,87,0.00,,,0.00,Wunderground v.1.15,2013-01-18 10:08:00,
2013-01-18 05:11:00,18.9,15.4,30.53,NW,315,0.0,0.0,86,0.00,,,0.00,Wunderground v.1.15,2013-01-18 10:11:00,
2013-01-18 05:14:00,18.8,15.6,30.53,NW,315,0.0,0.0,87,0.00,,,0.00,Wunderground v.1.15,2013-01-18 10:14:00,
2013-01-18 05:16:00,18.6,15.4,30.53,NW,315,0.0,0.0,87,0.00,,,0.00,Wunderground v.1.15,2013-01-18 10:16:00,
2013-01-18 05:17:00,18.6,15.4,30.53,NW,315,0.0,0.0,87,0.00,,,0.00,Wunderground v.1.15,2013-01-18 10:17:00,
2013-01-18 05:20:00,18.6,15.4,30.53,NW,315,0.0,0.0,87,0.00,,,0.00,Wunderground v.1.15,2013-01-18 10:20:00,
2013-01-18 05:21:00,18.6,15.4,30.53,NW,315,0.0,0.0,87,0.00,,,0.00,Wunderground v.1.15,2013-01-18 10:21:00,
2013-01-18 05:22:00,18.6,15.4,30.53,NW,315,0.0,0.0,87,0.00,,,0.00,Wunderground v.1.15,2013-01-18 10:22:00,
2013-01-18 05:26:00,18.6,15.4,30.53,NW,315,0.0,0.0,87,0.00,,,0.00,Wunderground v.1.15,2013-01-18 10:26:00,
2013-01-18 05:27:00,18.6,15.4,30.53,NW,315,0.0,0.0,87,0.00,,,0.00,Wunderground v.1.15,2013-01-18 10:27:00,
2013-01-18 05:28:00,18.6,15.4,30.53,NW,315,0.0,0.0,87,0.00,,,0.00,Wunderground v.1.15,2013-01-18 10:28:00,
2013-01-18 05:31:00,18.6,15.4,30.53,NW,315,0.0,0.0,87,0.00,,,0.00,Wunderground v.1.15,2013-01-18 10:31:00,
2013-01-18 05:32:00,18.6,15.4,30.53,NW,315,0.0,0.0,87,0.00,,,0.00,Wunderground v.1.15,2013-01-18 10:32:00,
2013-01-18 05:33:00,18.6,15.4,30.53,NW,315,0.0,0.0,87,0.00,,,0.00,Wunderground v.1.15,2013-01-18 10:33:00,
2013-01-18 05:35:00,18.6,15.4,30.53,NW,315,0.0,0.0,87,0.00,,,0.00,Wunderground v.1.15,2013-01-18 10:35:00,
2013-01-18 05:36:00,18.6,15.4,30.53,NW,315,0.0,0.0,87,0.00,,,0.00,Wunderground v.1.15,2013-01-18 10:36:00,
2013-01-18 05:40:00,18.5,15.3,30.53,NW,315,0.0,0.0,87,0.00,,,0.00,Wunderground v.1.15,2013-01-18 10:40:00,
2013-01-18 05:42:00,18.5,15.3,30.53,NW,315,0.0,0.0,87,0.00,,,0.00,Wunderground v.1.15,2013-01-18 10:42:00,
2013-01-18 05:43:00,18.5,15.3,30.53,NW,315,0.0,0.0,87,0.00,,,0.00,Wunderground v.1.15,2013-01-18 10:43:00,
2013-01-18 05:45:00,18.5,15.3,30.53,NW,315,0.0,0.0,87,0.00,,,0.00,Wunderground v.1.15,2013-01-18 10:45:00,
2013-01-18 05:47:00,18.5,15.3,30.53,NW,315,0.0,0.0,87,0.00,,,0.00,Wunderground v.1.15,2013-01-18 10:47:00,
2013-01-18 05:50:00,18.5,15.5,30.53,NW,315,0.0,0.0,88,0.00,,,0.00,Wunderground v.1.15,2013-01-18 10:50:00,
2013-01-18 05:54:00,18.5,15.5,30.53,NW,315,0.0,0.0,88,0.00,,,0.00,Wunderground v.1.15,2013-01-18 10:54:00,
2013-01-18 05:57:00,18.5,15.5,30.53,NW,315,0.0,0.0,88,0.00,,,0.00,Wunderground v.1.15,2013-01-18 10:57:00,
2013-01-18 06:00:00,18.5,15.5,30.53,NW,315,0.0,0.0,88,0.00,,,0.00,Wunderground v.1.15,2013-01-18 11:00:00,
2013-01-18 06:01:00,18.5,15.5,30.53,NW,315,0.0,0.0,88,0.00,,,0.00,Wunderground v.1.15,2013-01-18 11:01:00,
2013-01-18 06:03:00,18.5,15.5,30.53,NW,315,0.0,0.0,88,0.00,,,0.00,Wunderground v.1.15,2013-01-18 11:03:00,
2013-01-18 06:08:00,18.3,15.3,30.53,NW,315,0.0,0.0,88,0.00,,,0.00,Wunderground v.1.15,2013-01-18 11:08:00,
2013-01-18 06:09:00,18.3,15.3,30.53,NW,315,0.0,0.0,88,0.00,,,0.00,Wunderground v.1.15,2013-01-18 11:09:00,
2013-01-18 06:10:00,18.3,15.3,30.53,NW,315,0.0,0.0,88,0.00,,,0.00,Wunderground v.1.15,2013-01-18 11:10:00,
2013-01-18 06:11:00,18.3,15.3,30.53,NW,315,0.0,0.0,88,0.00,,,0.00,Wunderground v.1.15,2013-01-18 11:11:00,
2013-01-18 06:15:00,18.3,15.3,30.54,NW,315,0.0,0.0,88,0.00,,,0.00,Wunderground v.1.15,2013-01-18 11:15:00,
2013-01-18 06:16:00,18.3,15.3,30.54,NW,315,0.0,0.0,88,0.00,,,0.00,Wunderground v.1.15,2013-01-18 11:16:00,
2013-01-18 06:18:00,18.2,15.2,30.54,NW,315,0.0,0.0,88,0.00,,,0.00,Wunderground v.1.15,2013-01-18 11:18:00,
2013-01-18 06:20:00,18.2,15.2,30.54,NW,315,0.0,0.0,88,0.00,,,0.00,Wunderground v.1.15,2013-01-18 11:20:00,
2013-01-18 06:21:00,18.2,15.2,30.54,NW,315,0.0,0.0,88,0.00,,,0.00,Wunderground v.1.15,2013-01-18 11:21:00,
2013-01-18 06:22:00,18.2,15.2,30.54,NW,315,0.0,0.0,88,0.00,,,0.00,Wunderground v.1.15,2013-01-18 11:22:00,
2013-01-18 06:24:00,18.2,15.2,30.54,NW,315,0.0,0.0,88,0.00,,,0.00,Wunderground v.1.15,2013-01-18 11:24:00,
2013-01-18 06:25:00,18.2,15.2,30.54,NW,315,0.0,0.0,88,0.00,,,0.00,Wunderground v.1.15,2013-01-18 11:25:00,
2013-01-18 06:26:00,18.2,15.2,30.54,NW,315,0.0,0.0,88,0.00,,,0.00,Wunderground v.1.15,2013-01-18 11:26:00,
2013-01-18 06:27:00,18.2,15.2,30.54,NW,315,0.0,0.0,88,0.00,,,0.00,Wunderground v.1.15,2013-01-18 11:27:00,
2013-01-18 06:31:00,18.2,15.2,30.54,NW,315,0.0,0.0,88,0.00,,,0.00,Wunderground v.1.15,2013-01-18 11:31:00,
2013-01-18 06:32:00,18.2,15.2,30.54,NW,315,0.0,0.0,88,0.00,,,0.00,Wunderground v.1.15,2013-01-18 11:32:00,
2013-01-18 06:33:00,18.2,15.2,30.54,NW,315,0.0,0.0,88,0.00,,,0.00,Wunderground v.1.15,2013-01-18 11:33:00,
2013-01-18 06:38:00,18.2,15.2,30.54,NW,315,0.0,0.0,88,0.00,,,0.00,Wunderground v.1.15,2013-01-18 11:38:00,
2013-01-18 06:39:00,18.2,15.2,30.54,NW,315,0.0,0.0,88,0.00,,,0.00,Wunderground v.1.15,2013-01-18 11:39:00,
2013-01-18 06:40:00,18.2,15.2,30.54,NW,315,0.0,0.0,88,0.00,,,0.00,Wunderground v.1.15,2013-01-18 11:40:00,
2013-01-18 06:43:00,18.0,15.0,30.54,NW,315,0.0,0.0,88,0.00,,,0.00,Wunderground v.1.15,2013-01-18 11:43:00,
2013-01-18 06:44:00,18.0,15.0,30.54,NW,315,0.0,0.0,88,0.00,,,0.00,Wunderground v.1.15,2013-01-18 11:44:00,
2013-01-18 06:45:00,18.0,15.0,30.55,NW,315,0.0,0.0,88,0.00,,,0.00,Wunderground v.1.15,2013-01-18 11:45:00,
2013-01-18 06:47:00,18.0,15.0,30.55,NW,315,0.0,0.0,88,0.00,,,0.00,Wunderground v.1.15,2013-01-18 11:47:00,
2013-01-18 06:51:00,18.0,15.0,30.55,NW,315,0.0,0.0,88,0.00,,,0.00,Wunderground v.1.15,2013-01-18 11:51:00,
2013-01-18 06:53:00,18.0,15.0,30.55,NW,315,0.0,0.0,88,0.00,,,0.00,Wunderground v.1.15,2013-01-18 11:53:00,
2013-01-18 06:54:00,17.8,14.8,30.55,NW,315,0.0,0.0,88,0.00,,,0.00,Wunderground v.1.15,2013-01-18 11:54:00,
2013-01-18 06:55:00,17.8,14.8,30.55,NW,315,0.0,0.0,88,0.00,,,0.00,Wunderground v.1.15,2013-01-18 11:55:00,
2013-01-18 06:59:00,17.8,14.8,30.55,NW,315,0.0,0.0,88,0.00,,,0.00,Wunderground v.1.15,2013-01-18 11:59:00,
2013-01-18 07:00:00,17.8,14.8,30.54,NW,315,0.0,0.0,88,0.00,,,0.00,Wunderground v.1.15,2013-01-18 12:00:00,
2013-01-18 07:01:00,17.8,14.8,30.54,NW,315,0.0,0.0,88,0.00,,,0.00,Wunderground v.1.15,2013-01-18 12:01:00,
2013-01-18 07:03:00,17.8,14.8,30.54,NW,315,0.0,0.0,88,0.00,,,0.00,Wunderground v.1.15,2013-01-18 12:03:00,
2013-01-18 07:06:00,17.8,14.8,30.54,NW,315,0.0,0.0,88,0.00,,,0.00,Wunderground v.1.15,2013-01-18 12:06:00,
2013-01-18 07:08:00,17.7,14.8,30.54,NW,315,0.0,0.0,88,0.00,,,0.00,Wunderground v.1.15,2013-01-18 12:08:00,
2013-01-18 07:10:00,17.7,14.8,30.54,NW,315,0.0,0.0,88,0.00,,,0.00,Wunderground v.1.15,2013-01-18 12:10:00,
2013-01-18 07:13:00,17.7,14.8,30.54,NW,315,0.0,0.0,88,0.00,,,0.00,Wunderground v.1.15,2013-01-18 12:13:00,
2013-01-18 07:14:00,17.7,14.8,30.54,NW,315,0.0,0.0,88,0.00,,,0.00,Wunderground v.1.15,2013-01-18 12:14:00,
2013-01-18 07:16:00,17.7,14.8,30.54,NW,315,0.0,0.0,88,0.00,,,0.00,Wunderground v.1.15,2013-01-18 12:16:00,
2013-01-18 07:20:00,17.5,14.6,30.54,NW,315,0.0,0.0,88,0.00,,,0.00,Wunderground v.1.15,2013-01-18 12:20:00,
2013-01-18 07:21:00,17.5,14.6,30.54,NW,315,0.0,0.0,88,0.00,,,0.00,Wunderground v.1.15,2013-01-18 12:21:00,
2013-01-18 07:22:00,17.5,14.6,30.54,NW,315,0.0,0.0,88,0.00,,,0.00,Wunderground v.1.15,2013-01-18 12:22:00,
2013-01-18 07:27:00,17.4,14.5,30.54,NW,315,0.0,0.0,88,0.00,,,0.00,Wunderground v.1.15,2013-01-18 12:27:00,
2013-01-18 07:28:00,17.4,14.5,30.54,NW,315,0.0,0.0,88,0.00,,,0.00,Wunderground v.1.15,2013-01-18 12:28:00,
2013-01-18 07:30:00,17.2,14.3,30.54,NW,315,0.0,0.0,88,0.00,,,0.00,Wunderground v.1.15,2013-01-18 12:30:00,
2013-01-18 07:31:00,17.2,14.3,30.54,NW,315,0.0,0.0,88,0.00,,,0.00,Wunderground v.1.15,2013-01-18 12:31:00,
2013-01-18 07:33:00,17.2,14.3,30.54,NW,315,0.0,0.0,88,0.00,,,0.00,Wunderground v.1.15,2013-01-18 12:33:00,
2013-01-18 07:36:00,17.0,14.1,30.54,NW,315,0.0,0.0,88,0.00,,,0.00,Wunderground v.1.15,2013-01-18 12:36:00,
2013-01-18 07:37:00,17.0,14.1,30.54,NW,315,0.0,0.0,88,0.00,,,0.00,Wunderground v.1.15,2013-01-18 12:37:00,
2013-01-18 07:38:00,17.0,14.1,30.54,NW,315,0.0,0.0,88,0.00,,,0.00,Wunderground v.1.15,2013-01-18 12:38:00,
2013-01-18 07:40:00,17.0,14.1,30.54,NW,315,0.0,0.0,88,0.00,,,0.00,Wunderground v.1.15,2013-01-18 12:40:00,
2013-01-18 07:43:00,17.2,14.3,30.54,NW,315,0.0,0.0,88,0.00,,,0.00,Wunderground v.1.15,2013-01-18 12:43:00,
2013-01-18 07:44:00,17.2,14.3,30.54,NW,315,0.0,0.0,88,0.00,,,0.00,Wunderground v.1.15,2013-01-18 12:44:00,
2013-01-18 07:48:00,17.2,14.3,30.53,NW,315,0.0,0.0,88,0.00,,,0.00,Wunderground v.1.15,2013-01-18 12:48:00,
2013-01-18 07:51:00,17.2,14.3,30.53,NW,315,0.0,0.0,88,0.00,,,0.00,Wunderground v.1.15,2013-01-18 12:51:00,
2013-01-18 07:52:00,17.2,14.3,30.53,NW,315,0.0,0.0,88,0.00,,,0.00,Wunderground v.1.15,2013-01-18 12:52:00,
2013-01-18 07:53:00,17.2,14.3,30.53,NW,315,0.0,0.0,88,0.00,,,0.00,Wunderground v.1.15,2013-01-18 12:53:00,
2013-01-18 07:56:00,17.2,14.3,30.53,NW,315,0.0,0.0,88,0.00,,,0.00,Wunderground v.1.15,2013-01-18 12:56:00,
2013-01-18 07:58:00,17.2,14.3,30.53,NW,315,0.0,0.0,88,0.00,,,0.00,Wunderground v.1.15,2013-01-18 12:58:00,
2013-01-18 07:59:00,17.2,14.3,30.53,NW,315,0.0,0.0,88,0.00,,,0.00,Wunderground v.1.15,2013-01-18 12:59:00,
2013-01-18 08:04:00,17.2,14.3,30.53,NW,315,0.0,0.0,88,0.00,,,0.00,Wunderground v.1.15,2013-01-18 13:04:00,
2013-01-18 08:05:00,17.2,14.3,30.53,NW,315,0.0,0.0,88,0.00,,,0.00,Wunderground v.1.15,2013-01-18 13:05:00,
2013-01-18 08:06:00,17.2,14.3,30.53,NW,315,0.0,0.0,88,0.00,,,0.00,Wunderground v.1.15,2013-01-18 13:06:00,
2013-01-18 08:09:00,17.2,14.3,30.53,NW,315,0.0,0.0,88,0.00,,,0.00,Wunderground v.1.15,2013-01-18 13:09:00,
2013-01-18 08:11:00,17.2,14.3,30.53,NW,315,0.0,0.0,88,0.00,,,0.00,Wunderground v.1.15,2013-01-18 13:11:00,
2013-01-18 08:12:00,17.2,14.3,30.53,NW,315,0.0,0.0,88,0.00,,,0.00,Wunderground v.1.15,2013-01-18 13:12:00,
2013-01-18 08:13:00,17.2,14.3,30.53,NW,315,0.0,0.0,88,0.00,,,0.00,Wunderground v.1.15,2013-01-18 13:13:00,
2013-01-18 08:17:00,17.2,14.3,30.55,NW,315,0.0,0.0,88,0.00,,,0.00,Wunderground v.1.15,2013-01-18 13:17:00,
2013-01-18 08:18:00,17.2,14.3,30.55,NW,315,0.0,0.0,88,0.00,,,0.00,Wunderground v.1.15,2013-01-18 13:18:00,
2013-01-18 08:20:00,17.2,14.3,30.55,NW,315,0.0,0.0,88,0.00,,,0.00,Wunderground v.1.15,2013-01-18 13:20:00,
2013-01-18 08:24:00,17.4,14.7,30.55,NW,315,0.0,0.0,89,0.00,,,0.00,Wunderground v.1.15,2013-01-18 13:24:00,
2013-01-18 08:25:00,17.4,14.7,30.55,NW,315,0.0,0.0,89,0.00,,,0.00,Wunderground v.1.15,2013-01-18 13:25:00,
2013-01-18 08:26:00,17.5,14.6,30.55,NW,315,0.0,0.0,88,0.00,,,0.00,Wunderground v.1.15,2013-01-18 13:26:00,
2013-01-18 08:28:00,17.5,14.8,30.55,NW,315,0.0,0.0,89,0.00,,,0.00,Wunderground v.1.15,2013-01-18 13:28:00,
2013-01-18 08:30:00,17.7,15.0,30.55,NW,315,0.0,0.0,89,0.00,,,0.00,Wunderground v.1.15,2013-01-18 13:30:00,
2013-01-18 08:32:00,17.8,15.1,30.55,NW,315,0.0,0.0,89,0.00,,,0.00,Wunderground v.1.15,2013-01-18 13:32:00,
2013-01-18 08:34:00,18.2,15.5,30.55,NW,315,0.0,0.0,89,0.00,,,0.00,Wunderground v.1.15,2013-01-18 13:34:00,
2013-01-18 08:35:00,18.2,15.5,30.55,NW,315,0.0,0.0,89,0.00,,,0.00,Wunderground v.1.15,2013-01-18 13:35:00,
2013-01-18 08:36:00,18.3,15.6,30.55,NW,315,0.0,0.0,89,0.00,,,0.00,Wunderground v.1.15,2013-01-18 13:36:00,
2013-01-18 08:41:00,18.6,15.9,30.55,NW,315,0.0,0.0,89,0.00,,,0.00,Wunderground v.1.15,2013-01-18 13:41:00,
2013-01-18 08:42:00,18.8,16.1,30.55,NW,315,0.0,0.0,89,0.00,,,0.00,Wunderground v.1.15,2013-01-18 13:42:00,
2013-01-18 08:46:00,19.3,16.6,30.56,NW,315,0.0,0.0,89,0.00,,,0.00,Wunderground v.1.15,2013-01-18 13:46:00,
2013-01-18 08:47:00,19.3,16.6,30.56,NW,315,0.0,0.0,89,0.00,,,0.00,Wunderground v.1.15,2013-01-18 13:47:00,
2013-01-18 08:49:00,19.4,16.7,30.56,NW,315,0.0,0.0,89,0.00,,,0.00,Wunderground v.1.15,2013-01-18 13:49:00,
2013-01-18 08:51:00,19.6,16.9,30.56,NW,315,0.0,0.0,89,0.00,,,0.00,Wunderground v.1.15,2013-01-18 13:51:00,
2013-01-18 08:52:00,19.6,16.9,30.56,NW,315,0.0,0.0,89,0.00,,,0.00,Wunderground v.1.15,2013-01-18 13:52:00,
2013-01-18 08:56:00,19.9,16.9,30.56,NW,315,0.0,0.0,88,0.00,,,0.00,Wunderground v.1.15,2013-01-18 13:56:00,
2013-01-18 08:57:00,19.9,17.2,30.56,NW,315,0.0,0.0,89,0.00,,,0.00,Wunderground v.1.15,2013-01-18 13:57:00,
2013-01-18 08:58:00,19.9,17.2,30.56,NW,315,0.0,0.0,89,0.00,,,0.00,Wunderground v.1.15,2013-01-18 13:58:00,
2013-01-18 09:00:00,20.4,17.7,30.56,NW,315,0.0,0.0,89,0.00,,,0.00,Wunderground v.1.15,2013-01-18 14:00:00,
2013-01-18 09:02:00,20.7,18.0,30.56,NW,315,0.0,0.0,89,0.00,,,0.00,Wunderground v.1.15,2013-01-18 14:02:00,
2013-01-18 09:04:00,20.8,18.1,30.56,NW,315,0.0,0.0,89,0.00,,,0.00,Wunderground v.1.15,2013-01-18 14:04:00,
2013-01-18 09:05:00,21.0,18.3,30.56,NW,315,0.0,0.0,89,0.00,,,0.00,Wunderground v.1.15,2013-01-18 14:05:00,
2013-01-18 09:07:00,21.1,18.1,30.56,NW,315,0.0,0.0,88,0.00,,,0.00,Wunderground v.1.15,2013-01-18 14:07:00,
2013-01-18 09:11:00,21.8,19.1,30.56,NW,315,0.0,0.0,89,0.00,,,0.00,Wunderground v.1.15,2013-01-18 14:11:00,
2013-01-18 09:12:00,21.9,19.2,30.56,NW,315,0.0,0.0,89,0.00,,,0.00,Wunderground v.1.15,2013-01-18 14:12:00,
2013-01-18 09:13:00,22.3,19.6,30.56,NW,315,0.0,0.0,89,0.00,,,0.00,Wunderground v.1.15,2013-01-18 14:13:00,
2013-01-18 09:15:00,22.4,19.6,30.56,NW,315,0.0,0.0,89,0.00,,,0.00,Wunderground v.1.15,2013-01-18 14:15:00,
2013-01-18 09:19:00,22.7,19.7,30.56,NW,315,0.0,0.0,88,0.00,,,0.00,Wunderground v.1.15,2013-01-18 14:19:00,
2013-01-18 09:20:00,22.9,19.9,30.56,NW,315,0.0,0.0,88,0.00,,,0.00,Wunderground v.1.15,2013-01-18 14:20:00,
2013-01-18 09:21:00,22.9,19.9,30.56,NW,315,0.0,0.0,88,0.00,,,0.00,Wunderground v.1.15,2013-01-18 14:21:00,
2013-01-18 09:22:00,23.0,20.0,30.56,NW,315,0.0,0.0,88,0.00,,,0.00,Wunderground v.1.15,2013-01-18 14:22:00,
2013-01-18 09:24:00,23.2,19.9,30.56,NW,315,0.0,0.0,87,0.00,,,0.00,Wunderground v.1.15,2013-01-18 14:24:00,
2013-01-18 09:27:00,23.5,20.2,30.56,NW,315,0.0,0.0,87,0.00,,,0.00,Wunderground v.1.15,2013-01-18 14:27:00,
2013-01-18 09:28:00,23.7,20.4,30.56,NW,315,0.0,0.0,87,0.00,,,0.00,Wunderground v.1.15,2013-01-18 14:28:00,
2013-01-18 09:31:00,24.0,20.7,30.57,NW,315,0.0,0.0,87,0.00,,,0.00,Wunderground v.1.15,2013-01-18 14:31:00,
2013-01-18 09:32:00,24.1,20.8,30.57,NW,315,0.0,0.0,87,0.00,,,0.00,Wunderground v.1.15,2013-01-18 14:32:00,
2013-01-18 09:33:00,24.3,21.0,30.57,NW,315,0.0,0.0,87,0.00,,,0.00,Wunderground v.1.15,2013-01-18 14:33:00,
2013-01-18 09:34:00,24.6,21.3,30.57,NW,315,0.0,0.0,87,0.00,,,0.00,Wunderground v.1.15,2013-01-18 14:34:00,
2013-01-18 09:37:00,25.0,21.4,30.57,NW,315,0.0,0.0,86,0.00,,,0.00,Wunderground v.1.15,2013-01-18 14:37:00,
2013-01-18 09:38:00,25.3,21.7,30.57,NW,315,0.0,0.0,86,0.00,,,0.00,Wunderground v.1.15,2013-01-18 14:38:00,
2013-01-18 09:40:00,25.6,22.0,30.57,NW,315,0.0,0.0,86,0.00,,,0.00,Wunderground v.1.15,2013-01-18 14:40:00,
2013-01-18 09:42:00,25.9,22.3,30.57,NW,315,0.0,0.0,86,0.00,,,0.00,Wunderground v.1.15,2013-01-18 14:42:00,
2013-01-18 09:43:00,26.1,22.5,30.57,NW,315,0.0,0.0,86,0.00,,,0.00,Wunderground v.1.15,2013-01-18 14:43:00,
2013-01-18 09:44:00,26.2,22.3,30.57,NW,315,0.0,0.0,85,0.00,,,0.00,Wunderground v.1.15,2013-01-18 14:44:00,
2013-01-18 09:45:00,26.3,22.4,30.57,NW,315,0.0,0.0,85,0.00,,,0.00,Wunderground v.1.15,2013-01-18 14:45:00,
2013-01-18 09:48:00,26.9,23.0,30.57,NW,315,0.0,0.0,85,0.00,,,0.00,Wunderground v.1.15,2013-01-18 14:48:00,
2013-01-18 09:51:00,27.1,22.6,30.57,WSW,247,0.0,0.0,83,0.00,,,0.00,Wunderground v.1.15,2013-01-18 14:51:00,
2013-01-18 09:52:00,27.2,22.7,30.57,SW,236,0.0,1.0,83,0.00,,,0.00,Wunderground v.1.15,2013-01-18 14:52:00,
2013-01-18 09:56:00,27.5,22.1,30.57,SSW,193,0.0,5.0,80,0.00,,,0.00,Wunderground v.1.15,2013-01-18 14:56:00,
2013-01-18 09:57:00,27.7,21.7,30.57,SSW,202,1.0,5.0,78,0.00,,,0.00,Wunderground v.1.15,2013-01-18 14:57:00,
2013-01-18 10:00:00,27.8,21.2,30.58,SE,144,1.0,3.0,76,0.00,,,0.00,Wunderground v.1.15,2013-01-18 15:00:00,
2013-01-18 10:01:00,27.8,20.9,30.58,SE,144,1.0,3.0,75,0.00,,,0.00,Wunderground v.1.15,2013-01-18 15:01:00,
2013-01-18 10:02:00,27.8,20.6,30.58,SE,144,2.0,3.0,74,0.00,,,0.00,Wunderground v.1.15,2013-01-18 15:02:00,
2013-01-18 10:05:00,28.1,21.2,30.58,SE,145,1.0,3.0,75,0.00,,,0.00,Wunderground v.1.15,2013-01-18 15:05:00,
2013-01-18 10:07:00,28.3,21.1,30.58,SE,128,1.0,3.0,74,0.00,,,0.00,Wunderground v.1.15,2013-01-18 15:07:00,
2013-01-18 10:08:00,28.4,21.2,30.58,SE,128,1.0,3.0,74,0.00,,,0.00,Wunderground v.1.15,2013-01-18 15:08:00,
2013-01-18 10:10:00,28.6,21.0,30.58,South,191,1.0,5.0,73,0.00,,,0.00,Wunderground v.1.15,2013-01-18 15:10:00,
2013-01-18 10:13:00,28.7,20.5,30.58,SE,124,1.0,5.0,71,0.00,,,0.00,Wunderground v.1.15,2013-01-18 15:13:00,
2013-01-18 10:15:00,28.9,20.7,30.57,SE,124,1.0,5.0,71,0.00,,,0.00,Wunderground v.1.15,2013-01-18 15:15:00,
2013-01-18 10:18:00,28.9,20.3,30.57,ESE,109,1.0,6.0,70,0.00,,,0.00,Wunderground v.1.15,2013-01-18 15:18:00,
2013-01-18 10:19:00,28.7,19.8,30.57,ESE,116,1.0,6.0,69,0.00,,,0.00,Wunderground v.1.15,2013-01-18 15:19:00,
2013-01-18 10:20:00,28.7,19.8,30.57,ESE,117,2.0,2.0,69,0.00,,,0.00,Wunderground v.1.15,2013-01-18 15:20:00,
2013-01-18 10:23:00,28.9,20.0,30.57,ESE,120,2.0,2.0,69,0.00,,,0.00,Wunderground v.1.15,2013-01-18 15:23:00,
2013-01-18 10:24:00,29.0,20.1,30.57,SE,134,2.0,2.0,69,0.00,,,0.00,Wunderground v.1.15,2013-01-18 15:24:00,
2013-01-18 10:28:00,29.2,20.3,30.57,SE,141,2.0,5.0,69,0.00,,,0.00,Wunderground v.1.15,2013-01-18 15:28:00,
2013-01-18 10:30:00,29.3,20.0,30.57,SSW,195,1.0,2.0,68,0.00,,,0.00,Wunderground v.1.15,2013-01-18 15:30:00,
2013-01-18 10:34:00,29.6,20.7,30.57,SSE,150,2.0,4.0,69,0.00,,,0.00,Wunderground v.1.15,2013-01-18 15:34:00,
2013-01-18 10:35:00,29.6,20.3,30.57,SE,128,2.0,4.0,68,0.00,,,0.00,Wunderground v.1.15,2013-01-18 15:35:00,
2013-01-18 10:37:00,29.8,20.9,30.57,SE,128,2.0,4.0,69,0.00,,,0.00,Wunderground v.1.15,2013-01-18 15:37:00,
2013-01-18 10:40:00,29.9,20.6,30.57,SSW,206,2.0,2.0,68,0.00,,,0.00,Wunderground v.1.15,2013-01-18 15:40:00,
2013-01-18 10:43:00,30.0,21.1,30.57,SSW,199,1.0,2.0,69,0.00,,,0.00,Wunderground v.1.15,2013-01-18 15:43:00,
2013-01-18 10:45:00,30.3,20.6,30.57,SSE,150,1.0,2.0,67,0.00,,,0.00,Wunderground v.1.15,2013-01-18 15:45:00,
2013-01-18 10:46:00,30.3,20.6,30.57,SSE,152,1.0,2.0,67,0.00,,,0.00,Wunderground v.1.15,2013-01-18 15:46:00,
2013-01-18 10:49:00,30.5,20.5,30.57,SE,144,1.0,2.0,66,0.00,,,0.00,Wunderground v.1.15,2013-01-18 15:49:00,
2013-01-18 10:50:00,30.6,20.6,30.57,SSE,160,1.0,1.0,66,0.00,,,0.00,Wunderground v.1.15,2013-01-18 15:50:00,
2013-01-18 10:51:00,30.6,20.6,30.57,SSW,200,1.0,1.0,66,0.00,,,0.00,Wunderground v.1.15,2013-01-18 15:51:00,
2013-01-18 10:54:00,30.6,20.2,30.57,SSW,193,1.0,6.0,65,0.00,,,0.00,Wunderground v.1.15,2013-01-18 15:54:00,
2013-01-18 10:59:00,30.8,20.4,30.57,ESE,120,2.0,6.0,65,0.00,,,0.00,Wunderground v.1.15,2013-01-18 15:59:00,
2013-01-18 11:00:00,30.8,20.8,30.56,SE,124,2.0,2.0,66,0.00,,,0.00,Wunderground v.1.15,2013-01-18 16:00:00,
2013-01-18 11:01:00,30.9,20.9,30.56,SE,124,2.0,4.0,66,0.00,,,0.00,Wunderground v.1.15,2013-01-18 16:01:00,
2013-01-18 11:06:00,31.1,21.1,30.56,East,86,2.0,5.0,66,0.00,,,0.00,Wunderground v.1.15,2013-01-18 16:06:00,
2013-01-18 11:07:00,31.1,21.1,30.56,SSE,155,2.0,5.0,66,0.00,,,0.00,Wunderground v.1.15,2013-01-18 16:07:00,
2013-01-18 11:09:00,31.2,20.8,30.56,ESE,117,2.0,7.0,65,0.00,,,0.00,Wunderground v.1.15,2013-01-18 16:09:00,
2013-01-18 11:11:00,31.2,20.8,30.56,ESE,114,3.0,5.0,65,0.00,,,0.00,Wunderground v.1.15,2013-01-18 16:11:00,
2013-01-18 11:15:00,31.5,21.4,30.56,SE,126,3.0,5.0,66,0.00,,,0.00,Wunderground v.1.15,2013-01-18 16:15:00,
2013-01-18 11:17:00,31.7,21.3,30.56,South,172,3.0,5.0,65,0.00,,,0.00,Wunderground v.1.15,2013-01-18 16:17:00,
2013-01-18 11:21:00,31.7,20.9,30.56,SE,140,2.0,9.0,64,0.00,,,0.00,Wunderground v.1.15,2013-01-18 16:21:00,
2013-01-18 11:22:00,31.7,20.5,30.56,SE,143,2.0,9.0,63,0.00,,,0.00,Wunderground v.1.15,2013-01-18 16:22:00,
2013-01-18 11:27:00,32.0,20.8,30.56,SSW,196,3.0,9.0,63,0.00,,,0.00,Wunderground v.1.15,2013-01-18 16:27:00,
2013-01-18 11:28:00,32.0,20.8,30.56,South,175,3.0,9.0,63,0.00,,,0.00,Wunderground v.1.15,2013-01-18 16:28:00,
2013-01-18 11:30:00,32.0,20.8,30.56,South,189,3.0,3.0,63,0.00,,,0.00,Wunderground v.1.15,2013-01-18 16:30:00,
2013-01-18 11:32:00,32.1,20.9,30.56,South,188,2.0,3.0,63,0.00,,,0.00,Wunderground v.1.15,2013-01-18 16:32:00,
2013-01-18 11:34:00,32.3,20.7,30.56,SSE,151,2.0,3.0,62,0.00,,,0.00,Wunderground v.1.15,2013-01-18 16:34:00,
2013-01-18 11:37:00,32.7,21.5,30.56,ESE,123,2.0,3.0,63,0.00,,,0.00,Wunderground v.1.15,2013-01-18 16:37:00,
2013-01-18 11:38:00,32.9,21.7,30.56,ESE,123,2.0,3.0,63,0.00,,,0.00,Wunderground v.1.15,2013-01-18 16:38:00,
2013-01-18 11:39:00,33.0,22.1,30.56,SE,124,2.0,3.0,64,0.00,,,0.00,Wunderground v.1.15,2013-01-18 16:39:00,
2013-01-18 11:43:00,33.2,21.2,30.56,South,178,1.0,4.0,61,0.00,,,0.00,Wunderground v.1.15,2013-01-18 16:43:00,
2013-01-18 11:44:00,33.3,21.3,30.56,South,178,2.0,4.0,61,0.00,,,0.00,Wunderground v.1.15,2013-01-18 16:44:00,
2013-01-18 11:47:00,33.4,21.4,30.55,South,189,2.0,5.0,61,0.00,,,0.00,Wunderground v.1.15,2013-01-18 16:47:00,
2013-01-18 11:48:00,33.4,21.0,30.55,South,191,2.0,5.0,60,0.00,,,0.00,Wunderground v.1.15,2013-01-18 16:48:00,
2013-01-18 11:52:00,33.6,21.2,30.55,South,185,3.0,3.0,60,0.00,,,0.00,Wunderground v.1.15,2013-01-18 16:52:00,
2013-01-18 11:53:00,33.6,20.8,30.55,South,169,3.0,3.0,59,0.00,,,0.00,Wunderground v.1.15,2013-01-18 16:53:00,
2013-01-18 11:55:00,33.9,21.1,30.55,SSW,192,2.0,3.0,59,0.00,,,0.00,Wunderground v.1.15,2013-01-18 16:55:00,
2013-01-18 11:56:00,33.9,20.7,30.55,SW,216,3.0,4.0,58,0.00,,,0.00,Wunderground v.1.15,2013-01-18 16:56:00,
2013-01-18 11:58:00,33.9,21.1,30.55,SSW,212,3.0,4.0,59,0.00,,,0.00,Wunderground v.1.15,2013-01-18 16:58:00,
2013-01-18 12:01:00,34.2,21.4,30.54,South,181,2.0,2.0,59,0.00,,,0.00,Wunderground v.1.15,2013-01-18 17:01:00,
2013-01-18 12:03:00,34.2,20.5,30.54,SE,136,2.0,2.0,57,0.00,,,0.00,Wunderground v.1.15,2013-01-18 17:03:00,
2013-01-18 12:04:00,34.0,20.3,30.54,ESE,112,2.0,6.0,57,0.00,,,0.00,Wunderground v.1.15,2013-01-18 17:04:00,
2013-01-18 12:05:00,34.2,21.4,30.54,SSE,154,2.0,6.0,59,0.00,,,0.00,Wunderground v.1.15,2013-01-18 17:05:00,
2013-01-18 12:08:00,34.0,20.3,30.54,SE,131,3.0,6.0,57,0.00,,,0.00,Wunderground v.1.15,2013-01-18 17:08:00,
2013-01-18 12:10:00,34.2,20.9,30.54,ESE,107,3.0,7.0,58,0.00,,,0.00,Wunderground v.1.15,2013-01-18 17:10:00,
2013-01-18 12:13:00,34.5,21.6,30.54,SSW,196,4.0,7.0,59,0.00,,,0.00,Wunderground v.1.15,2013-01-18 17:13:00,
2013-01-18 12:14:00,34.5,21.6,30.54,SSW,193,4.0,7.0,59,0.00,,,0.00,Wunderground v.1.15,2013-01-18 17:14:00,
2013-01-18 12:15:00,34.8,21.5,30.53,SSW,196,4.0,7.0,58,0.00,,,0.00,Wunderground v.1.15,2013-01-18 17:15:00,
2013-01-18 12:19:00,35.1,21.4,30.53,SSW,205,3.0,7.0,57,0.00,,,0.00,Wunderground v.1.15,2013-01-18 17:19:00,
2013-01-18 12:20:00,35.1,21.4,30.53,SSW,209,3.0,3.0,57,0.00,,,0.00,Wunderground v.1.15,2013-01-18 17:20:00,
2013-01-18 12:22:00,35.4,22.1,30.53,South,176,2.0,5.0,58,0.00,,,0.00,Wunderground v.1.15,2013-01-18 17:22:00,
2013-01-18 12:24:00,35.5,21.3,30.53,SW,216,2.0,8.0,56,0.00,,,0.00,Wunderground v.1.15,2013-01-18 17:24:00,
2013-01-18 12:25:00,35.5,20.9,30.53,South,179,3.0,8.0,55,0.00,,,0.00,Wunderground v.1.15,2013-01-18 17:25:00,
2013-01-18 12:27:00,35.5,20.5,30.53,SW,219,4.0,8.0,54,0.00,,,0.00,Wunderground v.1.15,2013-01-18 17:27:00,
2013-01-18 12:28:00,35.5,20.9,30.53,SSW,196,5.0,9.0,55,0.00,,,0.00,Wunderground v.1.15,2013-01-18 17:28:00,
2013-01-18 12:30:00,35.5,20.9,30.51,SW,233,5.0,5.0,55,0.00,,,0.00,Wunderground v.1.15,2013-01-18 17:30:00,
2013-01-18 12:32:00,35.5,20.5,30.51,SSW,205,6.0,7.0,54,0.00,,,0.00,Wunderground v.1.15,2013-01-18 17:32:00,
2013-01-18 12:33:00,35.5,20.5,30.51,SW,236,7.0,7.0,54,0.00,,,0.00,Wunderground v.1.15,2013-01-18 17:33:00,
2013-01-18 12:36:00,35.5,20.0,30.51,SSW,192,7.0,11.0,53,0.00,,,0.00,Wunderground v.1.15,2013-01-18 17:36:00,
2013-01-18 12:37:00,35.5,20.5,30.51,South,176,7.0,11.0,54,0.00,,,0.00,Wunderground v.1.15,2013-01-18 17:37:00,
2013-01-18 12:39:00,35.7,20.7,30.51,South,189,6.0,11.0,54,0.00,,,0.00,Wunderground v.1.15,2013-01-18 17:39:00,
2013-01-18 12:42:00,36.1,20.6,30.51,South,191,5.0,6.0,53,0.00,,,0.00,Wunderground v.1.15,2013-01-18 17:42:00,
2013-01-18 12:43:00,36.1,20.2,30.51,SW,220,5.0,6.0,52,0.00,,,0.00,Wunderground v.1.15,2013-01-18 17:43:00,
2013-01-18 12:46:00,36.1,20.6,30.50,South,181,4.0,11.0,53,0.00,,,0.00,Wunderground v.1.15,2013-01-18 17:46:00,
2013-01-18 12:48:00,36.1,20.2,30.50,SSW,206,5.0,11.0,52,0.00,,,0.00,Wunderground v.1.15,2013-01-18 17:48:00,
2013-01-18 12:49:00,36.1,20.6,30.50,SSW,212,5.0,11.0,53,0.00,,,0.00,Wunderground v.1.15,2013-01-18 17:49:00,
2013-01-18 12:51:00,36.0,20.5,30.50,South,181,6.0,6.0,53,0.00,,,0.00,Wunderground v.1.15,2013-01-18 17:51:00,
2013-01-18 12:54:00,36.1,21.0,30.50,SW,229,6.0,6.0,54,0.00,,,0.00,Wunderground v.1.15,2013-01-18 17:54:00,
2013-01-18 12:55:00,36.3,21.2,30.50,SSW,198,6.0,7.0,54,0.00,,,0.00,Wunderground v.1.15,2013-01-18 17:55:00,
2013-01-18 12:56:00,36.4,20.9,30.50,SSW,198,6.0,7.0,53,0.00,,,0.00,Wunderground v.1.15,2013-01-18 17:56:00,
2013-01-18 12:58:00,36.7,20.3,30.50,ESE,120,5.0,7.0,51,0.00,,,0.00,Wunderground v.1.15,2013-01-18 17:58:00,
2013-01-18 12:59:00,36.8,21.3,30.50,SSE,164,4.0,7.0,53,0.00,,,0.00,Wunderground v.1.15,2013-01-18 17:59:00,
2013-01-18 13:02:00,37.1,20.6,30.49,SSW,196,4.0,12.0,51,0.00,,,0.00,Wunderground v.1.15,2013-01-18 18:02:00,
2013-01-18 13:04:00,37.1,20.6,30.49,South,184,4.0,12.0,51,0.00,,,0.00,Wunderground v.1.15,2013-01-18 18:04:00,
2013-01-18 13:05:00,37.1,20.6,30.49,South,186,4.0,12.0,51,0.00,,,0.00,Wunderground v.1.15,2013-01-18 18:05:00,
2013-01-18 13:07:00,37.1,20.6,30.49,SW,226,4.0,12.0,51,0.00,,,0.00,Wunderground v.1.15,2013-01-18 18:07:00,
2013-01-18 13:11:00,37.4,20.4,30.49,SSW,209,5.0,6.0,50,0.00,,,0.00,Wunderground v.1.15,2013-01-18 18:11:00,
2013-01-18 13:12:00,37.5,20.5,30.49,SSW,196,4.0,9.0,50,0.00,,,0.00,Wunderground v.1.15,2013-01-18 18:12:00,
2013-01-18 13:13:00,37.5,21.0,30.49,SW,220,5.0,9.0,51,0.00,,,0.00,Wunderground v.1.15,2013-01-18 18:13:00,
2013-01-18 13:15:00,37.8,21.3,30.48,SW,226,5.0,12.0,51,0.00,,,0.00,Wunderground v.1.15,2013-01-18 18:15:00,
2013-01-18 13:18:00,37.7,21.2,30.48,SW,234,6.0,12.0,51,0.00,,,0.00,Wunderground v.1.15,2013-01-18 18:18:00,
2013-01-18 13:20:00,37.8,20.8,30.48,SSW,206,6.0,8.0,50,0.00,,,0.00,Wunderground v.1.15,2013-01-18 18:20:00,
2013-01-18 13:21:00,37.8,20.3,30.48,SSW,199,6.0,8.0,49,0.00,,,0.00,Wunderground v.1.15,2013-01-18 18:21:00,
2013-01-18 13:24:00,37.7,20.7,30.48,SSW,210,6.0,8.0,50,0.00,,,0.00,Wunderground v.1.15,2013-01-18 18:24:00,
2013-01-18 13:26:00,38.0,21.0,30.48,South,174,6.0,8.0,50,0.00,,,0.00,Wunderground v.1.15,2013-01-18 18:26:00,
2013-01-18 13:27:00,38.1,21.1,30.48,South,175,5.0,8.0,50,0.00,,,0.00,Wunderground v.1.15,2013-01-18 18:27:00,
2013-01-18 13:30:00,38.3,20.8,30.47,SSW,213,6.0,6.0,49,0.00,,,0.00,Wunderground v.1.15,2013-01-18 18:30:00,
2013-01-18 13:34:00,38.4,20.9,30.47,WSW,237,5.0,9.0,49,0.00,,,0.00,Wunderground v.1.15,2013-01-18 18:34:00,
2013-01-18 13:35:00,38.5,21.0,30.47,SSW,203,5.0,12.0,49,0.00,,,0.00,Wunderground v.1.15,2013-01-18 18:35:00,
2013-01-18 13:36:00,38.5,20.5,30.47,SSW,203,5.0,12.0,48,0.00,,,0.00,Wunderground v.1.15,2013-01-18 18:36:00,
2013-01-18 13:37:00,38.4,19.9,30.47,SW,224,6.0,12.0,47,0.00,,,0.00,Wunderground v.1.15,2013-01-18 18:37:00,
2013-01-18 13:40:00,38.4,20.9,30.47,WSW,251,7.0,7.0,49,0.00,,,0.00,Wunderground v.1.15,2013-01-18 18:40:00,
2013-01-18 13:41:00,38.5,20.5,30.47,SW,216,7.0,7.0,48,0.00,,,0.00,Wunderground v.1.15,2013-01-18 18:41:00,
2013-01-18 13:43:00,38.7,21.6,30.47,SSW,196,7.0,7.0,50,0.00,,,0.00,Wunderground v.1.15,2013-01-18 18:43:00,
2013-01-18 13:47:00,39.3,20.7,30.46,SSW,212,6.0,7.0,47,0.00,,,0.00,Wunderground v.1.15,2013-01-18 18:47:00,
2013-01-18 13:48:00,39.4,20.8,30.46,SW,216,5.0,7.0,47,0.00,,,0.00,Wunderground v.1.15,2013-01-18 18:48:00,
2013-01-18 13:50:00,39.3,20.7,30.46,SSE,168,5.0,7.0,47,0.00,,,0.00,Wunderground v.1.15,2013-01-18 18:50:00,
2013-01-18 13:51:00,39.1,20.0,30.46,SSW,200,6.0,14.0,46,0.00,,,0.00,Wunderground v.1.15,2013-01-18 18:51:00,
2013-01-18 13:52:00,39.1,20.0,30.46,SSW,196,6.0,14.0,46,0.00,,,0.00,Wunderground v.1.15,2013-01-18 18:52:00,
2013-01-18 13:54:00,39.3,20.7,30.46,SSW,192,6.0,14.0,47,0.00,,,0.00,Wunderground v.1.15,2013-01-18 18:54:00,
2013-01-18 13:57:00,39.4,20.8,30.46,SW,216,6.0,14.0,47,0.00,,,0.00,Wunderground v.1.15,2013-01-18 18:57:00,
2013-01-18 13:58:00,39.4,20.8,30.46,SSW,210,7.0,14.0,47,0.00,,,0.00,Wunderground v.1.15,2013-01-18 18:58:00,
2013-01-18 13:59:00,39.6,21.0,30.46,SSW,205,7.0,14.0,47,0.00,,,0.00,Wunderground v.1.15,2013-01-18 18:59:00,
2013-01-18 14:04:00,39.8,21.2,30.46,SSW,213,5.0,10.0,47,0.00,,,0.00,Wunderground v.1.15,2013-01-18 19:04:00,
2013-01-18 14:07:00,40.0,20.9,30.46,South,188,5.0,10.0,46,0.00,,,0.00,Wunderground v.1.15,2013-01-18 19:07:00,
2013-01-18 14:09:00,40.0,20.9,30.46,SSW,210,5.0,10.0,46,0.00,,,0.00,Wunderground v.1.15,2013-01-18 19:09:00,
2013-01-18 14:10:00,40.0,20.3,30.46,South,182,5.0,5.0,45,0.00,,,0.00,Wunderground v.1.15,2013-01-18 19:10:00,
2013-01-18 14:12:00,40.0,20.3,30.46,SSW,212,6.0,6.0,45,0.00,,,0.00,Wunderground v.1.15,2013-01-18 19:12:00,
2013-01-18 14:16:00,40.3,21.1,30.45,SW,233,6.0,7.0,46,0.00,,,0.00,Wunderground v.1.15,2013-01-18 19:16:00,
2013-01-18 14:19:00,40.4,20.7,30.45,SSW,205,6.0,7.0,45,0.00,,,0.00,Wunderground v.1.15,2013-01-18 19:19:00,
2013-01-18 14:21:00,40.6,21.4,30.45,SW,220,5.0,6.0,46,0.00,,,0.00,Wunderground v.1.15,2013-01-18 19:21:00,
2013-01-18 14:24:00,40.8,20.0,30.45,SW,226,4.0,8.0,43,0.00,,,0.00,Wunderground v.1.15,2013-01-18 19:24:00,
2013-01-18 14:28:00,40.7,20.5,30.45,South,189,5.0,10.0,44,0.00,,,0.00,Wunderground v.1.15,2013-01-18 19:28:00,
2013-01-18 14:29:00,40.7,20.5,30.45,South,172,5.0,10.0,44,0.00,,,0.00,Wunderground v.1.15,2013-01-18 19:29:00,
2013-01-18 14:30:00,40.8,20.5,30.44,SE,137,5.0,5.0,44,0.00,,,0.00,Wunderground v.1.15,2013-01-18 19:30:00,
2013-01-18 14:32:00,40.8,20.0,30.44,SSE,150,6.0,6.0,43,0.00,,,0.00,Wunderground v.1.15,2013-01-18 19:32:00,
2013-01-18 14:34:00,41.0,20.2,30.44,South,182,6.0,6.0,43,0.00,,,0.00,Wunderground v.1.15,2013-01-18 19:34:00,
2013-01-18 14:37:00,40.8,20.5,30.44,SW,222,5.0,7.0,44,0.00,,,0.00,Wunderground v.1.15,2013-01-18 19:37:00,
2013-01-18 14:38:00,40.8,20.5,30.44,South,185,5.0,9.0,44,0.00,,,0.00,Wunderground v.1.15,2013-01-18 19:38:00,
2013-01-18 14:40:00,41.0,21.3,30.44,SE,143,6.0,6.0,45,0.00,,,0.00,Wunderground v.1.15,2013-01-18 19:40:00,
2013-01-18 14:41:00,41.0,21.3,30.44,SW,220,6.0,7.0,45,0.00,,,0.00,Wunderground v.1.15,2013-01-18 19:41:00,
2013-01-18 14:45:00,41.3,20.5,30.43,SSW,212,6.0,12.0,43,0.00,,,0.00,Wunderground v.1.15,2013-01-18 19:45:00,
2013-01-18 14:46:00,41.3,20.5,30.43,SSE,164,6.0,12.0,43,0.00,,,0.00,Wunderground v.1.15,2013-01-18 19:46:00,
2013-01-18 14:48:00,41.4,20.5,30.43,SSW,212,6.0,12.0,43,0.00,,,0.00,Wunderground v.1.15,2013-01-18 19:48:00,
2013-01-18 14:50:00,41.6,20.2,30.43,West,261,5.0,5.0,42,0.00,,,0.00,Wunderground v.1.15,2013-01-18 19:50:00,
2013-01-18 14:52:00,41.7,20.8,30.43,SSW,208,6.0,8.0,43,0.00,,,0.00,Wunderground v.1.15,2013-01-18 19:52:00,
2013-01-18 14:54:00,41.8,20.9,30.43,SSW,193,5.0,8.0,43,0.00,,,0.00,Wunderground v.1.15,2013-01-18 19:54:00,
2013-01-18 14:56:00,42.1,21.2,30.43,SW,222,4.0,8.0,43,0.00,,,0.00,Wunderground v.1.15,2013-01-18 19:56:00,
2013-01-18 14:57:00,42.1,20.6,30.43,SSW,200,4.0,8.0,42,0.00,,,0.00,Wunderground v.1.15,2013-01-18 19:57:00,
2013-01-18 14:59:00,42.3,21.4,30.43,South,189,4.0,8.0,43,0.00,,,0.00,Wunderground v.1.15,2013-01-18 19:59:00,
2013-01-18 15:02:00,42.3,21.4,30.42,SSW,195,4.0,7.0,43,0.00,,,0.00,Wunderground v.1.15,2013-01-18 20:02:00,
2013-01-18 15:03:00,42.3,21.4,30.42,SW,233,3.0,9.0,43,0.00,,,0.00,Wunderground v.1.15,2013-01-18 20:03:00,
2013-01-18 15:04:00,42.3,21.4,30.42,SSE,168,4.0,13.0,43,0.00,,,0.00,Wunderground v.1.15,2013-01-18 20:04:00,
2013-01-18 15:07:00,42.1,21.7,30.42,SSW,205,5.0,13.0,44,0.00,,,0.00,Wunderground v.1.15,2013-01-18 20:07:00,
2013-01-18 15:08:00,42.1,21.2,30.42,South,176,5.0,13.0,43,0.00,,,0.00,Wunderground v.1.15,2013-01-18 20:08:00,
2013-01-18 15:09:00,42.1,20.6,30.42,SSE,165,6.0,13.0,42,0.00,,,0.00,Wunderground v.1.15,2013-01-18 20:09:00,
2013-01-18 15:13:00,42.1,20.6,30.42,SW,216,7.0,16.0,42,0.00,,,0.00,Wunderground v.1.15,2013-01-18 20:13:00,
2013-01-18 15:15:00,42.1,20.1,30.42,SSE,155,8.0,16.0,41,0.00,,,0.00,Wunderground v.1.15,2013-01-18 20:15:00,
2013-01-18 15:17:00,42.3,20.8,30.42,SSW,196,7.0,16.0,42,0.00,,,0.00,Wunderground v.1.15,2013-01-18 20:17:00,
2013-01-18 15:18:00,42.3,20.8,30.42,South,185,7.0,16.0,42,0.00,,,0.00,Wunderground v.1.15,2013-01-18 20:18:00,
2013-01-18 15:20:00,42.6,21.6,30.42,SW,215,6.0,11.0,43,0.00,,,0.00,Wunderground v.1.15,2013-01-18 20:20:00,
2013-01-18 15:23:00,42.7,21.2,30.42,South,182,6.0,14.0,42,0.00,,,0.00,Wunderground v.1.15,2013-01-18 20:23:00,
2013-01-18 15:25:00,42.7,20.6,30.42,South,185,5.0,14.0,41,0.00,,,0.00,Wunderground v.1.15,2013-01-18 20:25:00,
2013-01-18 15:26:00,42.6,19.9,30.42,SW,220,5.0,14.0,40,0.00,,,0.00,Wunderground v.1.15,2013-01-18 20:26:00,
2013-01-18 15:27:00,42.6,20.5,30.42,South,189,6.0,17.0,41,0.00,,,0.00,Wunderground v.1.15,2013-01-18 20:27:00,
2013-01-18 15:31:00,42.3,19.7,30.41,South,188,8.0,10.0,40,0.00,,,0.00,Wunderground v.1.15,2013-01-18 20:31:00,
2013-01-18 15:32:00,42.4,19.8,30.41,South,181,7.0,10.0,40,0.00,,,0.00,Wunderground v.1.15,2013-01-18 20:32:00,
2013-01-18 15:36:00,42.6,19.9,30.41,SSW,199,7.0,11.0,40,0.00,,,0.00,Wunderground v.1.15,2013-01-18 20:36:00,
2013-01-18 15:37:00,42.7,20.0,30.41,South,189,7.0,13.0,40,0.00,,,0.00,Wunderground v.1.15,2013-01-18 20:37:00,
2013-01-18 15:38:00,42.7,20.0,30.41,SW,227,7.0,13.0,40,0.00,,,0.00,Wunderground v.1.15,2013-01-18 20:38:00,
2013-01-18 15:40:00,42.7,20.0,30.41,SSW,202,6.0,7.0,40,0.00,,,0.00,Wunderground v.1.15,2013-01-18 20:40:00,
2013-01-18 15:44:00,42.8,20.1,30.41,South,186,7.0,8.0,40,0.00,,,0.00,Wunderground v.1.15,2013-01-18 20:44:00,
2013-01-18 15:45:00,42.8,20.1,30.40,SW,230,7.0,10.0,40,0.00,,,0.00,Wunderground v.1.15,2013-01-18 20:45:00,
2013-01-18 15:47:00,42.8,20.1,30.40,SSW,205,7.0,18.0,40,0.00,,,0.00,Wunderground v.1.15,2013-01-18 20:47:00,
2013-01-18 15:49:00,42.8,20.7,30.40,South,186,7.0,18.0,41,0.00,,,0.00,Wunderground v.1.15,2013-01-18 20:49:00,
2013-01-18 15:51:00,43.0,20.9,30.40,SW,220,7.0,10.0,41,0.00,,,0.00,Wunderground v.1.15,2013-01-18 20:51:00,
2013-01-18 15:52:00,43.0,20.9,30.40,SSW,200,7.0,10.0,41,0.00,,,0.00,Wunderground v.1.15,2013-01-18 20:52:00,
2013-01-18 15:54:00,43.1,20.4,30.40,SSW,196,7.0,13.0,40,0.00,,,0.00,Wunderground v.1.15,2013-01-18 20:54:00,
2013-01-18 15:57:00,43.1,21.0,30.40,South,186,7.0,13.0,41,0.00,,,0.00,Wunderground v.1.15,2013-01-18 20:57:00,
2013-01-18 15:58:00,43.1,21.0,30.40,South,185,7.0,13.0,41,0.00,,,0.00,Wunderground v.1.15,2013-01-18 20:58:00,
2013-01-18 16:00:00,43.3,21.7,30.40,South,189,5.0,5.0,42,0.00,,,0.00,Wunderground v.1.15,2013-01-18 21:00:00,
2013-01-18 16:04:00,43.3,21.1,30.40,South,186,5.0,6.0,41,0.00,,,0.00,Wunderground v.1.15,2013-01-18 21:04:00,
2013-01-18 16:07:00,43.3,20.6,30.40,SSW,202,4.0,6.0,40,0.00,,,0.00,Wunderground v.1.15,2013-01-18 21:07:00,
2013-01-18 16:08:00,43.4,21.2,30.40,South,176,3.0,7.0,41,0.00,,,0.00,Wunderground v.1.15,2013-01-18 21:08:00,
2013-01-18 16:09:00,43.4,20.7,30.40,SSW,209,3.0,12.0,40,0.00,,,0.00,Wunderground v.1.15,2013-01-18 21:09:00,
2013-01-18 16:10:00,43.4,21.2,30.40,SSE,154,3.0,5.0,41,0.00,,,0.00,Wunderground v.1.15,2013-01-18 21:10:00,
2013-01-18 16:14:00,43.6,20.8,30.40,SSE,151,4.0,5.0,40,0.00,,,0.00,Wunderground v.1.15,2013-01-18 21:14:00,
2013-01-18 16:15:00,43.6,20.8,30.39,SSE,165,3.0,6.0,40,0.00,,,0.00,Wunderground v.1.15,2013-01-18 21:15:00,
2013-01-18 16:16:00,43.4,20.7,30.39,SE,133,4.0,6.0,40,0.00,,,0.00,Wunderground v.1.15,2013-01-18 21:16:00,
2013-01-18 16:17:00,43.4,20.7,30.39,South,189,4.0,7.0,40,0.00,,,0.00,Wunderground v.1.15,2013-01-18 21:17:00,
2013-01-18 16:21:00,43.7,20.9,30.39,SE,128,3.0,14.0,40,0.00,,,0.00,Wunderground v.1.15,2013-01-18 21:21:00,
2013-01-18 16:22:00,43.7,20.9,30.39,South,185,4.0,14.0,40,0.00,,,0.00,Wunderground v.1.15,2013-01-18 21:22:00,
2013-01-18 16:23:00,43.7,20.9,30.39,South,181,4.0,14.0,40,0.00,,,0.00,Wunderground v.1.15,2013-01-18 21:23:00,
2013-01-18 16:25:00,43.6,19.6,30.39,SSW,198,5.0,14.0,38,0.00,,,0.00,Wunderground v.1.15,2013-01-18 21:25:00,
2013-01-18 16:27:00,43.6,19.6,30.39,SW,215,6.0,14.0,38,0.00,,,0.00,Wunderground v.1.15,2013-01-18 21:27:00,
2013-01-18 16:28:00,43.6,20.2,30.39,South,185,6.0,14.0,39,0.00,,,0.00,Wunderground v.1.15,2013-01-18 21:28:00,
2013-01-18 16:31:00,43.6,19.6,30.38,South,184,7.0,8.0,38,0.00,,,0.00,Wunderground v.1.15,2013-01-18 21:31:00,
2013-01-18 16:32:00,43.6,19.6,30.38,SSW,212,7.0,8.0,38,0.00,,,0.00,Wunderground v.1.15,2013-01-18 21:32:00,
2013-01-18 16:33:00,43.6,20.2,30.38,SSW,213,7.0,8.0,39,0.00,,,0.00,Wunderground v.1.15,2013-01-18 21:33:00,
2013-01-18 16:38:00,43.6,20.2,30.38,SSW,199,6.0,11.0,39,0.00,,,0.00,Wunderground v.1.15,2013-01-18 21:38:00,
2013-01-18 16:39:00,43.6,20.2,30.38,SSW,206,6.0,11.0,39,0.00,,,0.00,Wunderground v.1.15,2013-01-18 21:39:00,
2013-01-18 16:42:00,43.6,20.2,30.38,SW,219,6.0,9.0,39,0.00,,,0.00,Wunderground v.1.15,2013-01-18 21:42:00,
2013-01-18 16:43:00,43.6,20.2,30.38,SSW,213,6.0,9.0,39,0.00,,,0.00,Wunderground v.1.15,2013-01-18 21:43:00,
2013-01-18 16:45:00,43.6,21.4,30.38,SSW,212,6.0,9.0,41,0.00,,,0.00,Wunderground v.1.15,2013-01-18 21:45:00,
2013-01-18 16:46:00,43.6,20.8,30.38,SSW,202,6.0,9.0,40,0.00,,,0.00,Wunderground v.1.15,2013-01-18 21:46:00,
2013-01-18 16:48:00,43.7,21.5,30.38,SSW,213,5.0,9.0,41,0.00,,,0.00,Wunderground v.1.15,2013-01-18 21:48:00,
2013-01-18 16:51:00,43.7,20.9,30.38,SSW,198,5.0,8.0,40,0.00,,,0.00,Wunderground v.1.15,2013-01-18 21:51:00,
2013-01-18 16:52:00,43.7,20.9,30.38,SSW,212,5.0,8.0,40,0.00,,,0.00,Wunderground v.1.15,2013-01-18 21:52:00,
2013-01-18 16:53:00,43.7,20.9,30.38,SSW,210,4.0,8.0,40,0.00,,,0.00,Wunderground v.1.15,2013-01-18 21:53:00,
2013-01-18 16:56:00,43.7,21.5,30.38,SSW,208,4.0,8.0,41,0.00,,,0.00,Wunderground v.1.15,2013-01-18 21:56:00,
2013-01-18 16:58:00,43.7,20.9,30.38,SSW,203,4.0,8.0,40,0.00,,,0.00,Wunderground v.1.15,2013-01-18 21:58:00,
2013-01-18 16:59:00,43.7,20.9,30.38,South,176,4.0,13.0,40,0.00,,,0.00,Wunderground v.1.15,2013-01-18 21:59:00,
2013-01-18 17:02:00,43.6,21.4,30.38,SSW,210,5.0,7.0,41,0.00,,,0.00,Wunderground v.1.15,2013-01-18 22:02:00,
2013-01-18 17:04:00,43.6,21.4,30.38,SSW,205,5.0,7.0,41,0.00,,,0.00,Wunderground v.1.15,2013-01-18 22:04:00,
2013-01-18 17:05:00,43.4,20.7,30.38,SSW,213,6.0,7.0,40,0.00,,,0.00,Wunderground v.1.15,2013-01-18 22:05:00,
2013-01-18 17:07:00,43.4,21.2,30.38,SSW,209,6.0,7.0,41,0.00,,,0.00,Wunderground v.1.15,2013-01-18 22:07:00,
2013-01-18 17:11:00,43.3,21.1,30.38,SSW,195,6.0,16.0,41,0.00,,,0.00,Wunderground v.1.15,2013-01-18 22:11:00,
2013-01-18 17:12:00,43.3,22.3,30.38,South,188,6.0,16.0,43,0.00,,,0.00,Wunderground v.1.15,2013-01-18 22:12:00,
2013-01-18 17:13:00,43.3,22.3,30.38,SW,216,6.0,16.0,43,0.00,,,0.00,Wunderground v.1.15,2013-01-18 22:13:00,
2013-01-18 17:16:00,43.3,21.1,30.37,SSW,203,6.0,16.0,41,0.00,,,0.00,Wunderground v.1.15,2013-01-18 22:16:00,
2013-01-18 17:18:00,43.3,22.3,30.37,SE,136,7.0,16.0,43,0.00,,,0.00,Wunderground v.1.15,2013-01-18 22:18:00,
2013-01-18 17:19:00,43.1,21.0,30.37,South,184,6.0,16.0,41,0.00,,,0.00,Wunderground v.1.15,2013-01-18 22:19:00,
2013-01-18 17:23:00,43.1,21.0,30.37,South,175,5.0,10.0,41,0.00,,,0.00,Wunderground v.1.15,2013-01-18 22:23:00,
2013-01-18 17:24:00,43.0,21.4,30.37,SSE,168,5.0,10.0,42,0.00,,,0.00,Wunderground v.1.15,2013-01-18 22:24:00,
2013-01-18 17:26:00,43.0,22.0,30.37,SW,222,6.0,10.0,43,0.00,,,0.00,Wunderground v.1.15,2013-01-18 22:26:00,
2013-01-18 17:27:00,43.0,21.4,30.37,SSW,206,5.0,10.0,42,0.00,,,0.00,Wunderground v.1.15,2013-01-18 22:27:00,
2013-01-18 17:31:00,42.8,21.3,30.36,SW,234,5.0,5.0,42,0.00,,,0.00,Wunderground v.1.15,2013-01-18 22:31:00,
2013-01-18 17:32:00,42.8,21.8,30.36,South,191,4.0,5.0,43,0.00,,,0.00,Wunderground v.1.15,2013-01-18 22:32:00,
2013-01-18 17:34:00,42.7,21.7,30.36,SSW,209,4.0,7.0,43,0.00,,,0.00,Wunderground v.1.15,2013-01-18 22:34:00,
2013-01-18 17:35:00,42.7,21.7,30.36,SSW,196,4.0,7.0,43,0.00,,,0.00,Wunderground v.1.15,2013-01-18 22:35:00,
2013-01-18 17:37:00,42.7,21.7,30.36,SSW,199,4.0,7.0,43,0.00,,,0.00,Wunderground v.1.15,2013-01-18 22:37:00,
2013-01-18 17:38:00,42.7,21.7,30.36,SW,215,3.0,7.0,43,0.00,,,0.00,Wunderground v.1.15,2013-01-18 22:38:00,
2013-01-18 17:40:00,42.6,21.6,30.36,SW,229,3.0,3.0,43,0.00,,,0.00,Wunderground v.1.15,2013-01-18 22:40:00,
2013-01-18 17:44:00,42.3,21.9,30.36,SSW,195,2.0,3.0,44,0.00,,,0.00,Wunderground v.1.15,2013-01-18 22:44:00,
2013-01-18 17:46:00,42.1,22.3,30.36,SW,215,2.0,6.0,45,0.00,,,0.00,Wunderground v.1.15,2013-01-18 22:46:00,
2013-01-18 17:49:00,42.1,21.7,30.36,SW,222,2.0,6.0,44,0.00,,,0.00,Wunderground v.1.15,2013-01-18 22:49:00,
2013-01-18 17:51:00,42.0,22.2,30.36,South,181,2.0,12.0,45,0.00,,,0.00,Wunderground v.1.15,2013-01-18 22:51:00,
2013-01-18 17:52:00,42.0,22.2,30.36,SW,223,2.0,12.0,45,0.00,,,0.00,Wunderground v.1.15,2013-01-18 22:52:00,
2013-01-18 17:54:00,41.8,23.5,30.36,South,175,3.0,12.0,48,0.00,,,0.00,Wunderground v.1.15,2013-01-18 22:54:00,
2013-01-18 17:56:00,41.8,22.0,30.36,SSW,206,3.0,12.0,45,0.00,,,0.00,Wunderground v.1.15,2013-01-18 22:56:00,
2013-01-18 17:57:00,41.8,22.0,30.36,SW,224,3.0,12.0,45,0.00,,,0.00,Wunderground v.1.15,2013-01-18 22:57:00,
2013-01-18 17:59:00,41.8,22.0,30.36,SW,232,3.0,12.0,45,0.00,,,0.00,Wunderground v.1.15,2013-01-18 22:59:00,
2013-01-18 18:01:00,41.7,22.4,30.36,SSW,202,4.0,4.0,46,0.00,,,0.00,Wunderground v.1.15,2013-01-18 23:01:00,
2013-01-18 18:02:00,41.7,22.4,30.36,SSW,210,3.0,6.0,46,0.00,,,0.00,Wunderground v.1.15,2013-01-18 23:02:00,
2013-01-18 18:04:00,41.6,22.3,30.36,SW,223,3.0,6.0,46,0.00,,,0.00,Wunderground v.1.15,2013-01-18 23:04:00,
2013-01-18 18:06:00,41.4,22.1,30.36,SW,223,2.0,6.0,46,0.00,,,0.00,Wunderground v.1.15,2013-01-18 23:06:00,
2013-01-18 18:09:00,41.3,22.6,30.36,South,181,1.0,6.0,47,0.00,,,0.00,Wunderground v.1.15,2013-01-18 23:09:00,
2013-01-18 18:10:00,41.4,22.7,30.36,South,191,1.0,3.0,47,0.00,,,0.00,Wunderground v.1.15,2013-01-18 23:10:00,
2013-01-18 18:11:00,41.4,22.7,30.36,SSW,208,1.0,3.0,47,0.00,,,0.00,Wunderground v.1.15,2013-01-18 23:11:00,
2013-01-18 18:12:00,41.4,23.2,30.36,SSW,210,1.0,3.0,48,0.00,,,0.00,Wunderground v.1.15,2013-01-18 23:12:00,
2013-01-18 18:15:00,41.3,22.6,30.36,SSW,210,1.0,3.0,47,0.00,,,0.00,Wunderground v.1.15,2013-01-18 23:15:00,
2013-01-18 18:16:00,41.3,22.1,30.36,SW,223,1.0,3.0,46,0.00,,,0.00,Wunderground v.1.15,2013-01-18 23:16:00,
2013-01-18 18:17:00,41.1,22.4,30.36,SW,223,1.0,3.0,47,0.00,,,0.00,Wunderground v.1.15,2013-01-18 23:17:00,
2013-01-18 18:21:00,41.0,22.3,30.36,South,171,1.0,2.0,47,0.00,,,0.00,Wunderground v.1.15,2013-01-18 23:21:00,
2013-01-18 18:22:00,41.0,22.3,30.36,South,171,1.0,2.0,47,0.00,,,0.00,Wunderground v.1.15,2013-01-18 23:22:00,
2013-01-18 18:23:00,41.0,22.3,30.36,South,171,1.0,2.0,47,0.00,,,0.00,Wunderground v.1.15,2013-01-18 23:23:00,
2013-01-18 18:27:00,40.8,22.6,30.36,South,185,1.0,2.0,48,0.00,,,0.00,Wunderground v.1.15,2013-01-18 23:27:00,
2013-01-18 18:28:00,40.7,22.0,30.36,South,185,1.0,2.0,47,0.00,,,0.00,Wunderground v.1.15,2013-01-18 23:28:00,
2013-01-18 18:30:00,40.6,21.9,30.36,South,184,0.0,0.0,47,0.00,,,0.00,Wunderground v.1.15,2013-01-18 23:30:00,
2013-01-18 18:32:00,40.6,21.9,30.36,South,188,0.0,0.0,47,0.00,,,0.00,Wunderground v.1.15,2013-01-18 23:32:00,
2013-01-18 18:35:00,40.4,22.2,30.36,South,188,0.0,0.0,48,0.00,,,0.00,Wunderground v.1.15,2013-01-18 23:35:00,
2013-01-18 18:38:00,40.3,22.6,30.36,South,188,0.0,0.0,49,0.00,,,0.00,Wunderground v.1.15,2013-01-18 23:38:00,
2013-01-18 18:41:00,40.3,22.6,30.36,South,181,0.0,1.0,49,0.00,,,0.00,Wunderground v.1.15,2013-01-18 23:41:00,
2013-01-18 18:43:00,40.1,22.4,30.36,South,184,0.0,3.0,49,0.00,,,0.00,Wunderground v.1.15,2013-01-18 23:43:00,
2013-01-18 18:46:00,40.3,23.1,30.35,SSW,205,1.0,3.0,50,0.00,,,0.00,Wunderground v.1.15,2013-01-18 23:46:00,
2013-01-18 18:47:00,40.1,22.4,30.35,SSW,203,1.0,3.0,49,0.00,,,0.00,Wunderground v.1.15,2013-01-18 23:47:00,
2013-01-18 18:50:00,40.1,22.4,30.35,ESE,104,1.0,2.0,49,0.00,,,0.00,Wunderground v.1.15,2013-01-18 23:50:00,
2013-01-18 18:52:00,40.1,22.9,30.35,WSW,237,2.0,2.0,50,0.00,,,0.00,Wunderground v.1.15,2013-01-18 23:52:00,
2013-01-18 18:54:00,40.1,23.9,30.35,SW,236,2.0,2.0,52,0.00,,,0.00,Wunderground v.1.15,2013-01-18 23:54:00,
2013-01-18 18:55:00,40.1,22.9,30.35,SW,229,2.0,2.0,50,0.00,,,0.00,Wunderground v.1.15,2013-01-18 23:55:00,
2013-01-18 18:56:00,40.1,22.9,30.35,SSW,213,2.0,2.0,50,0.00,,,0.00,Wunderground v.1.15,2013-01-18 23:56:00,
2013-01-18 18:58:00,40.1,22.9,30.35,SSW,192,2.0,5.0,50,0.00,,,0.00,Wunderground v.1.15,2013-01-18 23:58:00,
2013-01-18 18:59:00,40.1,22.4,30.35,SSW,192,2.0,5.0,49,0.00,,,0.00,Wunderground v.1.15,2013-01-18 23:59:00,
2013-01-18 19:02:00,40.1,22.9,30.35,South,185,1.0,1.0,50,0.00,,,0.00,Wunderground v.1.15,2013-01-19 00:02:00,
2013-01-18 19:03:00,40.1,22.9,30.35,South,185,1.0,1.0,50,0.00,,,0.00,Wunderground v.1.15,2013-01-19 00:03:00,
2013-01-18 19:08:00,39.8,22.7,30.35,SSE,154,0.0,2.0,50,0.00,,,0.00,Wunderground v.1.15,2013-01-19 00:08:00,
2013-01-18 19:09:00,39.8,22.7,30.35,SSE,157,0.0,2.0,50,0.00,,,0.00,Wunderground v.1.15,2013-01-19 00:09:00,
2013-01-18 19:11:00,39.7,22.6,30.35,SSE,157,0.0,0.0,50,0.00,,,0.00,Wunderground v.1.15,2013-01-19 00:11:00,
2013-01-18 19:14:00,39.7,23.5,30.35,South,175,0.0,0.0,52,0.00,,,0.00,Wunderground v.1.15,2013-01-19 00:14:00,
2013-01-18 19:16:00,39.7,23.0,30.35,South,175,0.0,0.0,51,0.00,,,0.00,Wunderground v.1.15,2013-01-19 00:16:00,
2013-01-18 19:17:00,39.6,23.9,30.35,South,175,0.0,0.0,53,0.00,,,0.00,Wunderground v.1.15,2013-01-19 00:17:00,
2013-01-18 19:19:00,39.6,22.9,30.35,SW,224,0.0,0.0,51,0.00,,,0.00,Wunderground v.1.15,2013-01-19 00:19:00,
2013-01-18 19:20:00,39.4,22.8,30.35,SW,224,0.0,0.0,51,0.00,,,0.00,Wunderground v.1.15,2013-01-19 00:20:00,
2013-01-18 19:22:00,39.4,22.8,30.35,SSW,192,0.0,2.0,51,0.00,,,0.00,Wunderground v.1.15,2013-01-19 00:22:00,
2013-01-18 19:24:00,39.4,23.7,30.35,South,186,0.0,5.0,53,0.00,,,0.00,Wunderground v.1.15,2013-01-19 00:24:00,
2013-01-18 19:25:00,39.4,23.7,30.35,South,186,0.0,5.0,53,0.00,,,0.00,Wunderground v.1.15,2013-01-19 00:25:00,
2013-01-18 19:28:00,39.4,23.7,30.35,SSW,198,1.0,7.0,53,0.00,,,0.00,Wunderground v.1.15,2013-01-19 00:28:00,
2013-01-18 19:30:00,39.4,23.7,30.35,SSW,209,1.0,1.0,53,0.00,,,0.00,Wunderground v.1.15,2013-01-19 00:30:00,
2013-01-18 19:31:00,39.4,23.7,30.35,WSW,240,1.0,1.0,53,0.00,,,0.00,Wunderground v.1.15,2013-01-19 00:31:00,
2013-01-18 19:35:00,39.4,24.1,30.35,SW,220,1.0,5.0,54,0.00,,,0.00,Wunderground v.1.15,2013-01-19 00:35:00,
2013-01-18 19:36:00,39.4,24.1,30.35,SSW,200,2.0,5.0,54,0.00,,,0.00,Wunderground v.1.15,2013-01-19 00:36:00,
2013-01-18 19:39:00,39.4,24.1,30.35,SSW,203,2.0,5.0,54,0.00,,,0.00,Wunderground v.1.15,2013-01-19 00:39:00,
2013-01-18 19:40:00,39.3,24.0,30.35,South,191,2.0,5.0,54,0.00,,,0.00,Wunderground v.1.15,2013-01-19 00:40:00,
2013-01-18 19:42:00,39.3,24.0,30.35,SSE,161,2.0,5.0,54,0.00,,,0.00,Wunderground v.1.15,2013-01-19 00:42:00,
2013-01-18 19:46:00,39.3,24.0,30.34,SSW,208,2.0,5.0,54,0.00,,,0.00,Wunderground v.1.15,2013-01-19 00:46:00,
2013-01-18 19:47:00,39.3,24.0,30.34,SW,224,2.0,5.0,54,0.00,,,0.00,Wunderground v.1.15,2013-01-19 00:47:00,
2013-01-18 19:49:00,39.3,24.0,30.34,SSW,206,2.0,5.0,54,0.00,,,0.00,Wunderground v.1.15,2013-01-19 00:49:00,
2013-01-18 19:53:00,39.1,23.8,30.34,SW,226,2.0,4.0,54,0.00,,,0.00,Wunderground v.1.15,2013-01-19 00:53:00,
2013-01-18 19:54:00,39.3,24.0,30.34,SSW,212,2.0,7.0,54,0.00,,,0.00,Wunderground v.1.15,2013-01-19 00:54:00,
2013-01-18 19:55:00,39.3,24.5,30.34,SSW,198,2.0,7.0,55,0.00,,,0.00,Wunderground v.1.15,2013-01-19 00:55:00,
2013-01-18 19:58:00,39.4,24.1,30.34,SW,233,3.0,7.0,54,0.00,,,0.00,Wunderground v.1.15,2013-01-19 00:58:00,
2013-01-18 20:00:00,39.4,24.6,30.34,SSW,208,3.0,5.0,55,0.00,,,0.00,Wunderground v.1.15,2013-01-19 01:00:00,
2013-01-18 20:03:00,39.6,24.3,30.34,SSW,195,4.0,6.0,54,0.00,,,0.00,Wunderground v.1.15,2013-01-19 01:03:00,
2013-01-18 20:05:00,39.7,24.4,30.34,SSW,196,5.0,7.0,54,0.00,,,0.00,Wunderground v.1.15,2013-01-19 01:05:00,
2013-01-18 20:06:00,39.7,24.4,30.34,South,189,5.0,7.0,54,0.00,,,0.00,Wunderground v.1.15,2013-01-19 01:06:00,
2013-01-18 20:07:00,39.7,24.4,30.34,SSW,212,4.0,7.0,54,0.00,,,0.00,Wunderground v.1.15,2013-01-19 01:07:00,
2013-01-18 20:08:00,39.8,24.9,30.34,SSE,161,4.0,7.0,55,0.00,,,0.00,Wunderground v.1.15,2013-01-19 01:08:00,
2013-01-18 20:13:00,39.8,24.5,30.34,South,185,4.0,6.0,54,0.00,,,0.00,Wunderground v.1.15,2013-01-19 01:13:00,
2013-01-18 20:14:00,39.8,24.5,30.34,South,186,4.0,6.0,54,0.00,,,0.00,Wunderground v.1.15,2013-01-19 01:14:00,
2013-01-18 20:16:00,39.8,24.9,30.33,SW,216,3.0,6.0,55,0.00,,,0.00,Wunderground v.1.15,2013-01-19 01:16:00,
2013-01-18 20:17:00,39.8,24.5,30.33,SSE,148,3.0,6.0,54,0.00,,,0.00,Wunderground v.1.15,2013-01-19 01:17:00,
2013-01-18 20:22:00,40.0,24.7,30.33,SSW,198,4.0,8.0,54,0.00,,,0.00,Wunderground v.1.15,2013-01-19 01:22:00,
2013-01-18 20:23:00,40.0,24.7,30.33,SSE,151,4.0,13.0,54,0.00,,,0.00,Wunderground v.1.15,2013-01-19 01:23:00,
2013-01-18 20:28:00,40.1,24.8,30.33,SW,222,6.0,13.0,54,0.00,,,0.00,Wunderground v.1.15,2013-01-19 01:28:00,
2013-01-18 20:29:00,40.1,24.8,30.33,SSE,155,6.0,13.0,54,0.00,,,0.00,Wunderground v.1.15,2013-01-19 01:29:00,
2013-01-18 20:31:00,40.0,24.7,30.32,SSW,208,6.0,6.0,54,0.00,,,0.00,Wunderground v.1.15,2013-01-19 01:31:00,
2013-01-18 20:34:00,40.0,25.1,30.32,South,178,6.0,10.0,55,0.00,,,0.00,Wunderground v.1.15,2013-01-19 01:34:00,
2013-01-18 20:36:00,40.1,25.2,30.32,South,178,6.0,11.0,55,0.00,,,0.00,Wunderground v.1.15,2013-01-19 01:36:00,
2013-01-18 20:37:00,40.1,25.2,30.32,SSE,158,6.0,11.0,55,0.00,,,0.00,Wunderground v.1.15,2013-01-19 01:37:00,
2013-01-18 20:39:00,40.1,25.2,30.32,SSW,193,6.0,11.0,55,0.00,,,0.00,Wunderground v.1.15,2013-01-19 01:39:00,
2013-01-18 20:40:00,40.1,25.2,30.32,WSW,240,6.0,6.0,55,0.00,,,0.00,Wunderground v.1.15,2013-01-19 01:40:00,
2013-01-18 20:42:00,40.1,25.2,30.32,SSW,208,6.0,8.0,55,0.00,,,0.00,Wunderground v.1.15,2013-01-19 01:42:00,
2013-01-18 20:44:00,40.0,25.1,30.32,SE,143,6.0,8.0,55,0.00,,,0.00,Wunderground v.1.15,2013-01-19 01:44:00,
2013-01-18 20:46:00,40.0,25.1,30.32,SSW,199,6.0,11.0,55,0.00,,,0.00,Wunderground v.1.15,2013-01-19 01:46:00,
2013-01-18 20:47:00,40.1,25.2,30.32,SSE,161,6.0,11.0,55,0.00,,,0.00,Wunderground v.1.15,2013-01-19 01:47:00,
2013-01-18 20:49:00,40.1,25.2,30.32,South,172,6.0,11.0,55,0.00,,,0.00,Wunderground v.1.15,2013-01-19 01:49:00,
2013-01-18 20:52:00,40.0,25.6,30.32,SSW,200,5.0,6.0,56,0.00,,,0.00,Wunderground v.1.15,2013-01-19 01:52:00,
2013-01-18 20:53:00,40.1,25.2,30.32,SSE,168,6.0,8.0,55,0.00,,,0.00,Wunderground v.1.15,2013-01-19 01:53:00,
2013-01-18 20:54:00,40.1,25.2,30.32,SSE,164,6.0,8.0,55,0.00,,,0.00,Wunderground v.1.15,2013-01-19 01:54:00,
2013-01-18 20:57:00,40.1,25.2,30.32,SSW,212,6.0,12.0,55,0.00,,,0.00,Wunderground v.1.15,2013-01-19 01:57:00,
2013-01-18 20:58:00,40.1,25.2,30.32,SSW,195,6.0,12.0,55,0.00,,,0.00,Wunderground v.1.15,2013-01-19 01:58:00,
2013-01-18 21:00:00,40.1,25.2,30.31,SW,216,6.0,6.0,55,0.00,,,0.00,Wunderground v.1.15,2013-01-19 02:00:00,
2013-01-18 21:04:00,40.1,25.6,30.31,SSW,195,7.0,14.0,56,0.00,,,0.00,Wunderground v.1.15,2013-01-19 02:04:00,
2013-01-18 21:06:00,40.3,25.8,30.31,SW,230,7.0,14.0,56,0.00,,,0.00,Wunderground v.1.15,2013-01-19 02:06:00,
2013-01-18 21:07:00,40.3,25.8,30.31,SSW,203,7.0,17.0,56,0.00,,,0.00,Wunderground v.1.15,2013-01-19 02:07:00,
2013-01-18 21:09:00,40.3,25.8,30.31,SSW,208,8.0,17.0,56,0.00,,,0.00,Wunderground v.1.15,2013-01-19 02:09:00,
2013-01-18 21:11:00,40.3,25.8,30.31,SSW,196,8.0,8.0,56,0.00,,,0.00,Wunderground v.1.15,2013-01-19 02:11:00,
2013-01-18 21:12:00,40.3,25.8,30.31,SSW,208,8.0,8.0,56,0.00,,,0.00,Wunderground v.1.15,2013-01-19 02:12:00,
2013-01-18 21:13:00,40.3,25.8,30.31,SSW,196,7.0,14.0,56,0.00,,,0.00,Wunderground v.1.15,2013-01-19 02:13:00,
2013-01-18 21:15:00,40.3,25.8,30.30,SSW,205,7.0,14.0,56,0.00,,,0.00,Wunderground v.1.15,2013-01-19 02:15:00,
2013-01-18 21:17:00,40.4,25.9,30.30,SSW,195,7.0,14.0,56,0.00,,,0.00,Wunderground v.1.15,2013-01-19 02:17:00,
2013-01-18 21:19:00,40.4,25.9,30.30,SSW,193,7.0,15.0,56,0.00,,,0.00,Wunderground v.1.15,2013-01-19 02:19:00,
2013-01-18 21:21:00,40.4,25.9,30.30,SSW,195,8.0,16.0,56,0.00,,,0.00,Wunderground v.1.15,2013-01-19 02:21:00,
2013-01-18 21:24:00,40.4,25.9,30.30,South,186,9.0,16.0,56,0.00,,,0.00,Wunderground v.1.15,2013-01-19 02:24:00,
2013-01-18 21:26:00,40.4,25.9,30.30,SSW,196,8.0,16.0,56,0.00,,,0.00,Wunderground v.1.15,2013-01-19 02:26:00,
2013-01-18 21:28:00,40.4,25.9,30.30,South,191,8.0,16.0,56,0.00,,,0.00,Wunderground v.1.15,2013-01-19 02:28:00,
2013-01-18 21:29:00,40.4,25.9,30.30,SSW,199,8.0,16.0,56,0.00,,,0.00,Wunderground v.1.15,2013-01-19 02:29:00,
2013-01-18 21:30:00,40.4,25.9,30.30,South,179,8.0,8.0,56,0.00,,,0.00,Wunderground v.1.15,2013-01-19 02:30:00,
2013-01-18 21:35:00,40.4,25.9,30.30,SSW,200,8.0,16.0,56,0.00,,,0.00,Wunderground v.1.15,2013-01-19 02:35:00,
2013-01-18 21:36:00,40.4,25.9,30.30,South,185,8.0,16.0,56,0.00,,,0.00,Wunderground v.1.15,2013-01-19 02:36:00,
2013-01-18 21:37:00,40.4,25.9,30.30,SSW,208,8.0,16.0,56,0.00,,,0.00,Wunderground v.1.15,2013-01-19 02:37:00,
2013-01-18 21:40:00,40.4,25.9,30.30,SW,232,7.0,7.0,56,0.00,,,0.00,Wunderground v.1.15,2013-01-19 02:40:00,
2013-01-18 21:42:00,40.4,26.4,30.30,SW,230,6.0,7.0,57,0.00,,,0.00,Wunderground v.1.15,2013-01-19 02:42:00,
2013-01-18 21:44:00,40.4,26.4,30.30,SW,224,6.0,8.0,57,0.00,,,0.00,Wunderground v.1.15,2013-01-19 02:44:00,
2013-01-18 21:46:00,40.6,26.1,30.29,SW,234,6.0,16.0,56,0.00,,,0.00,Wunderground v.1.15,2013-01-19 02:46:00,
2013-01-18 21:47:00,40.6,26.1,30.29,SW,219,7.0,16.0,56,0.00,,,0.00,Wunderground v.1.15,2013-01-19 02:47:00,
2013-01-18 21:48:00,40.6,26.1,30.29,South,185,7.0,16.0,56,0.00,,,0.00,Wunderground v.1.15,2013-01-19 02:48:00,
2013-01-18 21:49:00,40.6,26.1,30.29,SSW,209,7.0,16.0,56,0.00,,,0.00,Wunderground v.1.15,2013-01-19 02:49:00,
2013-01-18 21:54:00,40.7,26.2,30.29,South,172,9.0,12.0,56,0.00,,,0.00,Wunderground v.1.15,2013-01-19 02:54:00,
2013-01-18 21:57:00,40.7,26.2,30.29,SW,223,8.0,12.0,56,0.00,,,0.00,Wunderground v.1.15,2013-01-19 02:57:00,
2013-01-18 21:59:00,40.8,26.3,30.29,SSW,203,9.0,13.0,56,0.00,,,0.00,Wunderground v.1.15,2013-01-19 02:59:00,
2013-01-18 22:00:00,40.8,26.3,30.29,SW,226,9.0,9.0,56,0.00,,,0.00,Wunderground v.1.15,2013-01-19 03:00:00,
2013-01-18 22:02:00,41.0,26.5,30.29,SW,217,9.0,13.0,56,0.00,,,0.00,Wunderground v.1.15,2013-01-19 03:02:00,
2013-01-18 22:06:00,41.0,26.5,30.29,SW,215,10.0,13.0,56,0.00,,,0.00,Wunderground v.1.15,2013-01-19 03:06:00,
2013-01-18 22:09:00,40.8,26.3,30.29,South,175,10.0,13.0,56,0.00,,,0.00,Wunderground v.1.15,2013-01-19 03:09:00,
2013-01-18 22:10:00,41.0,26.5,30.29,SW,219,10.0,17.0,56,0.00,,,0.00,Wunderground v.1.15,2013-01-19 03:10:00,
2013-01-18 22:13:00,41.0,26.5,30.29,SW,219,11.0,19.0,56,0.00,,,0.00,Wunderground v.1.15,2013-01-19 03:13:00,
2013-01-18 22:15:00,41.0,26.5,30.28,SW,217,10.0,19.0,56,0.00,,,0.00,Wunderground v.1.15,2013-01-19 03:15:00,
2013-01-18 22:16:00,41.0,26.5,30.28,SW,217,10.0,19.0,56,0.00,,,0.00,Wunderground v.1.15,2013-01-19 03:16:00,
2013-01-18 22:17:00,41.0,26.5,30.28,SE,138,10.0,19.0,56,0.00,,,0.00,Wunderground v.1.15,2013-01-19 03:17:00,
2013-01-18 22:18:00,41.0,26.5,30.28,SW,217,9.0,19.0,56,0.00,,,0.00,Wunderground v.1.15,2013-01-19 03:18:00,
2013-01-18 22:23:00,41.0,26.5,30.28,SW,226,8.0,17.0,56,0.00,,,0.00,Wunderground v.1.15,2013-01-19 03:23:00,
2013-01-18 22:24:00,41.0,26.5,30.28,SSE,165,8.0,17.0,56,0.00,,,0.00,Wunderground v.1.15,2013-01-19 03:24:00,
2013-01-18 22:26:00,41.1,26.1,30.28,South,189,9.0,25.0,55,0.00,,,0.00,Wunderground v.1.15,2013-01-19 03:26:00,
2013-01-18 22:28:00,41.1,26.1,30.28,SSW,198,9.0,25.0,55,0.00,,,0.00,Wunderground v.1.15,2013-01-19 03:28:00,
2013-01-18 22:29:00,41.1,26.1,30.28,WSW,237,9.0,25.0,55,0.00,,,0.00,Wunderground v.1.15,2013-01-19 03:29:00,
2013-01-18 22:31:00,41.1,26.1,30.27,SW,217,9.0,10.0,55,0.00,,,0.00,Wunderground v.1.15,2013-01-19 03:31:00,
2013-01-18 22:32:00,41.1,26.1,30.27,SSW,196,9.0,10.0,55,0.00,,,0.00,Wunderground v.1.15,2013-01-19 03:32:00,
2013-01-18 22:36:00,41.1,26.1,30.27,SSW,208,10.0,13.0,55,0.00,,,0.00,Wunderground v.1.15,2013-01-19 03:36:00,
2013-01-18 22:37:00,41.1,26.1,30.27,SSW,206,9.0,13.0,55,0.00,,,0.00,Wunderground v.1.15,2013-01-19 03:37:00,
2013-01-18 22:39:00,41.1,26.1,30.27,SSW,205,9.0,13.0,55,0.00,,,0.00,Wunderground v.1.15,2013-01-19 03:39:00,
2013-01-18 22:41:00,41.3,25.9,30.27,SSW,205,9.0,12.0,54,0.00,,,0.00,Wunderground v.1.15,2013-01-19 03:41:00,
2013-01-18 22:45:00,41.3,25.9,30.27,SW,217,9.0,12.0,54,0.00,,,0.00,Wunderground v.1.15,2013-01-19 03:45:00,
2013-01-18 22:47:00,41.3,25.9,30.27,SSW,193,8.0,12.0,54,0.00,,,0.00,Wunderground v.1.15,2013-01-19 03:47:00,
2013-01-18 22:48:00,41.4,26.0,30.27,SSW,199,8.0,12.0,54,0.00,,,0.00,Wunderground v.1.15,2013-01-19 03:48:00,
2013-01-18 22:52:00,41.4,26.0,30.27,SSW,198,9.0,11.0,54,0.00,,,0.00,Wunderground v.1.15,2013-01-19 03:52:00,
2013-01-18 22:55:00,41.6,25.7,30.27,SW,226,10.0,11.0,53,0.00,,,0.00,Wunderground v.1.15,2013-01-19 03:55:00,
2013-01-18 22:57:00,41.6,25.7,30.27,SSW,198,10.0,12.0,53,0.00,,,0.00,Wunderground v.1.15,2013-01-19 03:57:00,
2013-01-18 22:58:00,41.6,25.7,30.27,SSW,193,10.0,17.0,53,0.00,,,0.00,Wunderground v.1.15,2013-01-19 03:58:00,
2013-01-18 22:59:00,41.6,25.7,30.27,SSW,210,10.0,17.0,53,0.00,,,0.00,Wunderground v.1.15,2013-01-19 03:59:00,
2013-01-18 23:05:00,41.6,25.7,30.26,SSW,202,9.0,18.0,53,0.00,,,0.00,Wunderground v.1.15,2013-01-19 04:05:00,
2013-01-18 23:06:00,41.6,25.7,30.26,SW,215,10.0,18.0,53,0.00,,,0.00,Wunderground v.1.15,2013-01-19 04:06:00,
2013-01-18 23:07:00,41.6,25.3,30.26,SSW,205,10.0,18.0,52,0.00,,,0.00,Wunderground v.1.15,2013-01-19 04:07:00,
2013-01-18 23:10:00,41.8,25.4,30.26,South,189,10.0,16.0,52,0.00,,,0.00,Wunderground v.1.15,2013-01-19 04:10:00,
2013-01-18 23:12:00,41.8,25.4,30.26,SW,216,11.0,16.0,52,0.00,,,0.00,Wunderground v.1.15,2013-01-19 04:12:00,
2013-01-18 23:13:00,41.8,25.4,30.26,SW,220,10.0,16.0,52,0.00,,,0.00,Wunderground v.1.15,2013-01-19 04:13:00,
2013-01-18 23:14:00,41.8,25.4,30.26,SSW,200,10.0,16.0,52,0.00,,,0.00,Wunderground v.1.15,2013-01-19 04:14:00,
2013-01-18 23:17:00,41.8,25.0,30.26,South,185,10.0,16.0,51,0.00,,,0.00,Wunderground v.1.15,2013-01-19 04:17:00,
2013-01-18 23:18:00,41.8,25.0,30.26,SSW,205,10.0,16.0,51,0.00,,,0.00,Wunderground v.1.15,2013-01-19 04:18:00,
2013-01-18 23:19:00,42.0,25.2,30.26,SW,222,9.0,16.0,51,0.00,,,0.00,Wunderground v.1.15,2013-01-19 04:19:00,
2013-01-18 23:22:00,42.0,25.2,30.26,South,188,9.0,10.0,51,0.00,,,0.00,Wunderground v.1.15,2013-01-19 04:22:00,
2013-01-18 23:23:00,42.0,25.2,30.26,WSW,244,9.0,13.0,51,0.00,,,0.00,Wunderground v.1.15,2013-01-19 04:23:00,
2013-01-18 23:28:00,42.1,24.8,30.26,SSW,209,9.0,14.0,50,0.00,,,0.00,Wunderground v.1.15,2013-01-19 04:28:00,
2013-01-18 23:29:00,42.1,24.8,30.26,SSW,196,9.0,16.0,50,0.00,,,0.00,Wunderground v.1.15,2013-01-19 04:29:00,
2013-01-18 23:30:00,42.1,24.8,30.25,SW,216,10.0,12.0,50,0.00,,,0.00,Wunderground v.1.15,2013-01-19 04:30:00,
2013-01-18 23:31:00,42.1,24.8,30.25,South,182,10.0,12.0,50,0.00,,,0.00,Wunderground v.1.15,2013-01-19 04:31:00,
2013-01-18 23:34:00,42.1,24.8,30.25,South,189,10.0,14.0,50,0.00,,,0.00,Wunderground v.1.15,2013-01-19 04:34:00,
2013-01-18 23:36:00,42.1,24.8,30.25,South,189,9.0,14.0,50,0.00,,,0.00,Wunderground v.1.15,2013-01-19 04:36:00,
2013-01-18 23:37:00,42.1,24.8,30.25,SSW,195,9.0,14.0,50,0.00,,,0.00,Wunderground v.1.15,2013-01-19 04:37:00,
2013-01-18 23:40:00,42.3,24.5,30.25,South,178,9.0,9.0,49,0.00,,,0.00,Wunderground v.1.15,2013-01-19 04:40:00,
2013-01-18 23:42:00,42.3,24.5,30.25,South,178,9.0,25.0,49,0.00,,,0.00,Wunderground v.1.15,2013-01-19 04:42:00,
2013-01-18 23:45:00,42.4,24.6,30.24,South,189,10.0,25.0,49,0.00,,,0.00,Wunderground v.1.15,2013-01-19 04:45:00,
2013-01-18 23:46:00,42.4,24.6,30.24,South,171,10.0,25.0,49,0.00,,,0.00,Wunderground v.1.15,2013-01-19 04:46:00,
2013-01-18 23:47:00,42.4,24.6,30.24,SSW,203,10.0,25.0,49,0.00,,,0.00,Wunderground v.1.15,2013-01-19 04:47:00,
2013-01-18 23:49:00,42.4,24.6,30.24,SSE,168,9.0,25.0,49,0.00,,,0.00,Wunderground v.1.15,2013-01-19 04:49:00,
2013-01-18 23:51:00,42.4,24.1,30.24,SSW,209,10.0,11.0,48,0.00,,,0.00,Wunderground v.1.15,2013-01-19 04:51:00,
2013-01-18 23:52:00,42.4,24.1,30.24,SSW,195,10.0,15.0,48,0.00,,,0.00,Wunderground v.1.15,2013-01-19 04:52:00,
2013-01-18 23:53:00,42.4,24.6,30.24,SSW,202,10.0,15.0,49,0.00,,,0.00,Wunderground v.1.15,2013-01-19 04:53:00,
2013-01-18 23:57:00,42.4,24.1,30.24,SSW,195,10.0,16.0,48,0.00,,,0.00,Wunderground v.1.15,2013-01-19 04:57:00,
2013-01-18 23:58:00,42.6,23.8,30.24,SSW,208,10.0,17.0,47,0.00,,,0.00,Wunderground v.1.15,2013-01-19 04:58:00,
2013-01-18 23:59:00,42.7,23.8,30.24,SSW,192,12.0,17.0,47,0.00,,,0.00,Wunderground v.1.15,2013-01-19 04:59:00,